<?xml version='1.0' encoding='UTF-8'?>
<gpx version="1.1" creator="https://www.komoot.de" xmlns="http://www.topografix.com/GPX/1/1" xmlns:xsi="http://www.w3.org/2001/XMLSchema-instance" xsi:schemaLocation="http://www.topografix.com/GPX/1/1 http://www.topografix.com/GPX/1/1/gpx.xsd">
  <metadata>
    <name>Wanderung Rauher Kulm-Parkstein PW 459 11</name>
    <author>
      <link href="https://www.komoot.de">
        <text>komoot</text>
        <type>text/html</type>
      </link>
    </author>
  </metadata>
  <trk>
    <name>Wanderung Rauher Kulm-Parkstein PW 459 11</name>
    <trkseg>
      <trkpt lat="49.772026" lon="11.930692">
        <ele>482.720484</ele>
        <time>2021-11-28T07:07:41.709Z</time>
      </trkpt>
      <trkpt lat="49.771992" lon="11.930847">
        <ele>482.720484</ele>
        <time>2021-11-28T07:07:44.600Z</time>
      </trkpt>
      <trkpt lat="49.772023" lon="11.930713">
        <ele>482.720484</ele>
        <time>2021-11-28T07:08:10.576Z</time>
      </trkpt>
      <trkpt lat="49.772066" lon="11.930585">
        <ele>482.720484</ele>
        <time>2021-11-28T07:08:21.585Z</time>
      </trkpt>
      <trkpt lat="49.772151" lon="11.930502">
        <ele>482.720484</ele>
        <time>2021-11-28T07:08:35.563Z</time>
      </trkpt>
      <trkpt lat="49.772240" lon="11.930426">
        <ele>482.720484</ele>
        <time>2021-11-28T07:08:45.591Z</time>
      </trkpt>
      <trkpt lat="49.772323" lon="11.930349">
        <ele>482.720484</ele>
        <time>2021-11-28T07:08:54.578Z</time>
      </trkpt>
      <trkpt lat="49.772401" lon="11.930274">
        <ele>482.720484</ele>
        <time>2021-11-28T07:09:02.573Z</time>
      </trkpt>
      <trkpt lat="49.772488" lon="11.930213">
        <ele>482.720484</ele>
        <time>2021-11-28T07:09:11.577Z</time>
      </trkpt>
      <trkpt lat="49.772582" lon="11.930157">
        <ele>482.720484</ele>
        <time>2021-11-28T07:09:20.588Z</time>
      </trkpt>
      <trkpt lat="49.772669" lon="11.930116">
        <ele>482.820656</ele>
        <time>2021-11-28T07:09:28.586Z</time>
      </trkpt>
      <trkpt lat="49.772761" lon="11.930089">
        <ele>482.955875</ele>
        <time>2021-11-28T07:09:36.588Z</time>
      </trkpt>
      <trkpt lat="49.772852" lon="11.930052">
        <ele>483.091740</ele>
        <time>2021-11-28T07:09:45.597Z</time>
      </trkpt>
      <trkpt lat="49.772947" lon="11.930015">
        <ele>483.233199</ele>
        <time>2021-11-28T07:09:53.591Z</time>
      </trkpt>
      <trkpt lat="49.773037" lon="11.929987">
        <ele>483.365762</ele>
        <time>2021-11-28T07:10:01.572Z</time>
      </trkpt>
      <trkpt lat="49.773129" lon="11.929956">
        <ele>483.501725</ele>
        <time>2021-11-28T07:10:08.592Z</time>
      </trkpt>
      <trkpt lat="49.773220" lon="11.929939">
        <ele>483.634087</ele>
        <time>2021-11-28T07:10:15.580Z</time>
      </trkpt>
      <trkpt lat="49.773309" lon="11.929913">
        <ele>483.764876</ele>
        <time>2021-11-28T07:10:22.583Z</time>
      </trkpt>
      <trkpt lat="49.773403" lon="11.929883">
        <ele>483.903471</ele>
        <time>2021-11-28T07:10:30.588Z</time>
      </trkpt>
      <trkpt lat="49.773493" lon="11.929859">
        <ele>484.035350</ele>
        <time>2021-11-28T07:10:37.593Z</time>
      </trkpt>
      <trkpt lat="49.773593" lon="11.929856">
        <ele>484.179784</ele>
        <time>2021-11-28T07:10:45.588Z</time>
      </trkpt>
      <trkpt lat="49.773693" lon="11.929868">
        <ele>484.324623</ele>
        <time>2021-11-28T07:10:53.581Z</time>
      </trkpt>
      <trkpt lat="49.773791" lon="11.929853">
        <ele>484.466831</ele>
        <time>2021-11-28T07:11:01.589Z</time>
      </trkpt>
      <trkpt lat="49.773891" lon="11.929844">
        <ele>484.611481</ele>
        <time>2021-11-28T07:11:09.585Z</time>
      </trkpt>
      <trkpt lat="49.773987" lon="11.929832">
        <ele>484.750562</ele>
        <time>2021-11-28T07:11:16.586Z</time>
      </trkpt>
      <trkpt lat="49.774078" lon="11.929840">
        <ele>484.882183</ele>
        <time>2021-11-28T07:11:23.580Z</time>
      </trkpt>
      <trkpt lat="49.774169" lon="11.929836">
        <ele>485.013646</ele>
        <time>2021-11-28T07:11:30.577Z</time>
      </trkpt>
      <trkpt lat="49.774266" lon="11.929844">
        <ele>485.153918</ele>
        <time>2021-11-28T07:11:37.577Z</time>
      </trkpt>
      <trkpt lat="49.774339" lon="11.929926">
        <ele>485.284151</ele>
        <time>2021-11-28T07:11:44.584Z</time>
      </trkpt>
      <trkpt lat="49.774387" lon="11.930058">
        <ele>485.800505</ele>
        <time>2021-11-28T07:11:52.570Z</time>
      </trkpt>
      <trkpt lat="49.774410" lon="11.930195">
        <ele>486.392742</ele>
        <time>2021-11-28T07:12:00.588Z</time>
      </trkpt>
      <trkpt lat="49.774437" lon="11.930328">
        <ele>486.976036</ele>
        <time>2021-11-28T07:12:08.583Z</time>
      </trkpt>
      <trkpt lat="49.774466" lon="11.930467">
        <ele>487.587183</ele>
        <time>2021-11-28T07:12:16.580Z</time>
      </trkpt>
      <trkpt lat="49.774494" lon="11.930601">
        <ele>488.176432</ele>
        <time>2021-11-28T07:12:24.572Z</time>
      </trkpt>
      <trkpt lat="49.774536" lon="11.930739">
        <ele>488.814703</ele>
        <time>2021-11-28T07:12:33.577Z</time>
      </trkpt>
      <trkpt lat="49.774583" lon="11.930867">
        <ele>489.430744</ele>
        <time>2021-11-28T07:12:41.581Z</time>
      </trkpt>
      <trkpt lat="49.774629" lon="11.930994">
        <ele>490.039955</ele>
        <time>2021-11-28T07:12:49.597Z</time>
      </trkpt>
      <trkpt lat="49.774679" lon="11.931113">
        <ele>490.633930</ele>
        <time>2021-11-28T07:12:58.587Z</time>
      </trkpt>
      <trkpt lat="49.774722" lon="11.931249">
        <ele>491.267462</ele>
        <time>2021-11-28T07:13:07.585Z</time>
      </trkpt>
      <trkpt lat="49.774753" lon="11.931390">
        <ele>491.890628</ele>
        <time>2021-11-28T07:13:15.585Z</time>
      </trkpt>
      <trkpt lat="49.774783" lon="11.931529">
        <ele>492.503793</ele>
        <time>2021-11-28T07:13:24.580Z</time>
      </trkpt>
      <trkpt lat="49.774784" lon="11.931672">
        <ele>493.102111</ele>
        <time>2021-11-28T07:13:34.569Z</time>
      </trkpt>
      <trkpt lat="49.774787" lon="11.931819">
        <ele>493.717437</ele>
        <time>2021-11-28T07:13:44.580Z</time>
      </trkpt>
      <trkpt lat="49.774759" lon="11.931965">
        <ele>494.354637</ele>
        <time>2021-11-28T07:13:54.574Z</time>
      </trkpt>
      <trkpt lat="49.774731" lon="11.932111">
        <ele>494.991838</ele>
        <time>2021-11-28T07:14:06.591Z</time>
      </trkpt>
      <trkpt lat="49.774746" lon="11.932257">
        <ele>495.610355</ele>
        <time>2021-11-28T07:14:14.603Z</time>
      </trkpt>
      <trkpt lat="49.774770" lon="11.932398">
        <ele>496.220417</ele>
        <time>2021-11-28T07:14:21.587Z</time>
      </trkpt>
      <trkpt lat="49.774797" lon="11.932538">
        <ele>496.831710</ele>
        <time>2021-11-28T07:14:29.586Z</time>
      </trkpt>
      <trkpt lat="49.774827" lon="11.932679">
        <ele>497.396974</ele>
        <time>2021-11-28T07:14:39.575Z</time>
      </trkpt>
      <trkpt lat="49.774853" lon="11.932828">
        <ele>497.967965</ele>
        <time>2021-11-28T07:14:48.580Z</time>
      </trkpt>
      <trkpt lat="49.774834" lon="11.932970">
        <ele>498.504448</ele>
        <time>2021-11-28T07:14:57.603Z</time>
      </trkpt>
      <trkpt lat="49.774773" lon="11.933084">
        <ele>499.052149</ele>
        <time>2021-11-28T07:15:05.579Z</time>
      </trkpt>
      <trkpt lat="49.774702" lon="11.933193">
        <ele>499.624893</ele>
        <time>2021-11-28T07:15:14.582Z</time>
      </trkpt>
      <trkpt lat="49.774702" lon="11.933343">
        <ele>500.179817</ele>
        <time>2021-11-28T07:15:23.578Z</time>
      </trkpt>
      <trkpt lat="49.774746" lon="11.933480">
        <ele>500.745864</ele>
        <time>2021-11-28T07:15:31.575Z</time>
      </trkpt>
      <trkpt lat="49.774784" lon="11.933609">
        <ele>501.270402</ele>
        <time>2021-11-28T07:15:39.580Z</time>
      </trkpt>
      <trkpt lat="49.774808" lon="11.933748">
        <ele>501.802692</ele>
        <time>2021-11-28T07:15:47.573Z</time>
      </trkpt>
      <trkpt lat="49.774837" lon="11.933886">
        <ele>502.339571</ele>
        <time>2021-11-28T07:15:55.580Z</time>
      </trkpt>
      <trkpt lat="49.774852" lon="11.934032">
        <ele>502.886487</ele>
        <time>2021-11-28T07:16:03.595Z</time>
      </trkpt>
      <trkpt lat="49.774859" lon="11.934185">
        <ele>503.453927</ele>
        <time>2021-11-28T07:16:11.589Z</time>
      </trkpt>
      <trkpt lat="49.774871" lon="11.934332">
        <ele>504.002078</ele>
        <time>2021-11-28T07:16:20.572Z</time>
      </trkpt>
      <trkpt lat="49.774887" lon="11.934476">
        <ele>504.542630</ele>
        <time>2021-11-28T07:16:29.574Z</time>
      </trkpt>
      <trkpt lat="49.774929" lon="11.934618">
        <ele>505.120433</ele>
        <time>2021-11-28T07:16:37.588Z</time>
      </trkpt>
      <trkpt lat="49.774949" lon="11.934770">
        <ele>505.694306</ele>
        <time>2021-11-28T07:16:45.597Z</time>
      </trkpt>
      <trkpt lat="49.774967" lon="11.934917">
        <ele>506.247818</ele>
        <time>2021-11-28T07:16:54.593Z</time>
      </trkpt>
      <trkpt lat="49.774991" lon="11.935070">
        <ele>506.830295</ele>
        <time>2021-11-28T07:17:02.588Z</time>
      </trkpt>
      <trkpt lat="49.775009" lon="11.935217">
        <ele>507.161816</ele>
        <time>2021-11-28T07:17:10.588Z</time>
      </trkpt>
      <trkpt lat="49.775022" lon="11.935368">
        <ele>506.585082</ele>
        <time>2021-11-28T07:17:18.575Z</time>
      </trkpt>
      <trkpt lat="49.775022" lon="11.935519">
        <ele>506.013406</ele>
        <time>2021-11-28T07:17:26.593Z</time>
      </trkpt>
      <trkpt lat="49.775016" lon="11.935662">
        <ele>505.470876</ele>
        <time>2021-11-28T07:17:34.598Z</time>
      </trkpt>
      <trkpt lat="49.774990" lon="11.935799">
        <ele>504.930269</ele>
        <time>2021-11-28T07:17:42.588Z</time>
      </trkpt>
      <trkpt lat="49.774956" lon="11.935935">
        <ele>504.378146</ele>
        <time>2021-11-28T07:17:49.583Z</time>
      </trkpt>
      <trkpt lat="49.774937" lon="11.936084">
        <ele>503.803149</ele>
        <time>2021-11-28T07:17:58.587Z</time>
      </trkpt>
      <trkpt lat="49.774995" lon="11.936202">
        <ele>503.241728</ele>
        <time>2021-11-28T07:18:06.588Z</time>
      </trkpt>
      <trkpt lat="49.775059" lon="11.936325">
        <ele>502.643712</ele>
        <time>2021-11-28T07:18:14.588Z</time>
      </trkpt>
      <trkpt lat="49.775131" lon="11.936426">
        <ele>502.074168</ele>
        <time>2021-11-28T07:18:21.576Z</time>
      </trkpt>
      <trkpt lat="49.775202" lon="11.936515">
        <ele>501.538644</ele>
        <time>2021-11-28T07:18:29.588Z</time>
      </trkpt>
      <trkpt lat="49.775289" lon="11.936583">
        <ele>500.967318</ele>
        <time>2021-11-28T07:18:37.579Z</time>
      </trkpt>
      <trkpt lat="49.775377" lon="11.936619">
        <ele>500.433720</ele>
        <time>2021-11-28T07:18:47.577Z</time>
      </trkpt>
      <trkpt lat="49.775473" lon="11.936632">
        <ele>499.868774</ele>
        <time>2021-11-28T07:18:57.581Z</time>
      </trkpt>
      <trkpt lat="49.775561" lon="11.936603">
        <ele>499.341322</ele>
        <time>2021-11-28T07:19:05.580Z</time>
      </trkpt>
      <trkpt lat="49.775655" lon="11.936560">
        <ele>498.766706</ele>
        <time>2021-11-28T07:19:14.590Z</time>
      </trkpt>
      <trkpt lat="49.775747" lon="11.936532">
        <ele>498.217039</ele>
        <time>2021-11-28T07:19:22.586Z</time>
      </trkpt>
      <trkpt lat="49.775843" lon="11.936495">
        <ele>497.637071</ele>
        <time>2021-11-28T07:19:32.581Z</time>
      </trkpt>
      <trkpt lat="49.775930" lon="11.936462">
        <ele>497.111956</ele>
        <time>2021-11-28T07:19:41.573Z</time>
      </trkpt>
      <trkpt lat="49.776028" lon="11.936440">
        <ele>496.491953</ele>
        <time>2021-11-28T07:19:50.594Z</time>
      </trkpt>
      <trkpt lat="49.776121" lon="11.936413">
        <ele>495.826739</ele>
        <time>2021-11-28T07:19:59.585Z</time>
      </trkpt>
      <trkpt lat="49.776216" lon="11.936369">
        <ele>495.129622</ele>
        <time>2021-11-28T07:20:08.583Z</time>
      </trkpt>
      <trkpt lat="49.776313" lon="11.936337">
        <ele>494.432375</ele>
        <time>2021-11-28T07:20:17.594Z</time>
      </trkpt>
      <trkpt lat="49.776409" lon="11.936324">
        <ele>493.754886</ele>
        <time>2021-11-28T07:20:25.585Z</time>
      </trkpt>
      <trkpt lat="49.776500" lon="11.936324">
        <ele>493.115125</ele>
        <time>2021-11-28T07:20:33.584Z</time>
      </trkpt>
      <trkpt lat="49.776596" lon="11.936309">
        <ele>492.436784</ele>
        <time>2021-11-28T07:20:42.578Z</time>
      </trkpt>
      <trkpt lat="49.776689" lon="11.936276">
        <ele>491.766017</ele>
        <time>2021-11-28T07:20:51.576Z</time>
      </trkpt>
      <trkpt lat="49.776782" lon="11.936229">
        <ele>491.078256</ele>
        <time>2021-11-28T07:21:01.582Z</time>
      </trkpt>
      <trkpt lat="49.776881" lon="11.936204">
        <ele>490.373059</ele>
        <time>2021-11-28T07:21:09.591Z</time>
      </trkpt>
      <trkpt lat="49.776951" lon="11.936297">
        <ele>489.724636</ele>
        <time>2021-11-28T07:21:18.598Z</time>
      </trkpt>
      <trkpt lat="49.776992" lon="11.936438">
        <ele>489.022599</ele>
        <time>2021-11-28T07:21:27.570Z</time>
      </trkpt>
      <trkpt lat="49.777021" lon="11.936585">
        <ele>488.324779</ele>
        <time>2021-11-28T07:21:35.577Z</time>
      </trkpt>
      <trkpt lat="49.777044" lon="11.936738">
        <ele>487.611596</ele>
        <time>2021-11-28T07:21:42.590Z</time>
      </trkpt>
      <trkpt lat="49.777067" lon="11.936878">
        <ele>486.955758</ele>
        <time>2021-11-28T07:21:49.580Z</time>
      </trkpt>
      <trkpt lat="49.777082" lon="11.937020">
        <ele>486.302518</ele>
        <time>2021-11-28T07:21:57.580Z</time>
      </trkpt>
      <trkpt lat="49.777101" lon="11.937168">
        <ele>485.617458</ele>
        <time>2021-11-28T07:22:05.580Z</time>
      </trkpt>
      <trkpt lat="49.777138" lon="11.937306">
        <ele>484.939093</ele>
        <time>2021-11-28T07:22:14.591Z</time>
      </trkpt>
      <trkpt lat="49.777173" lon="11.937444">
        <ele>484.265994</ele>
        <time>2021-11-28T07:22:21.588Z</time>
      </trkpt>
      <trkpt lat="49.777211" lon="11.937571">
        <ele>484.470614</ele>
        <time>2021-11-28T07:22:28.580Z</time>
      </trkpt>
      <trkpt lat="49.777233" lon="11.937721">
        <ele>485.064587</ele>
        <time>2021-11-28T07:22:36.576Z</time>
      </trkpt>
      <trkpt lat="49.777244" lon="11.937860">
        <ele>485.605349</ele>
        <time>2021-11-28T07:22:43.584Z</time>
      </trkpt>
      <trkpt lat="49.777255" lon="11.938008">
        <ele>486.180620</ele>
        <time>2021-11-28T07:22:51.585Z</time>
      </trkpt>
      <trkpt lat="49.777259" lon="11.938159">
        <ele>486.764194</ele>
        <time>2021-11-28T07:22:59.584Z</time>
      </trkpt>
      <trkpt lat="49.777269" lon="11.938310">
        <ele>487.350335</ele>
        <time>2021-11-28T07:23:07.589Z</time>
      </trkpt>
      <trkpt lat="49.777281" lon="11.938464">
        <ele>487.949317</ele>
        <time>2021-11-28T07:23:15.576Z</time>
      </trkpt>
      <trkpt lat="49.777285" lon="11.938605">
        <ele>488.494310</ele>
        <time>2021-11-28T07:23:23.583Z</time>
      </trkpt>
      <trkpt lat="49.777284" lon="11.938759">
        <ele>489.089007</ele>
        <time>2021-11-28T07:23:32.595Z</time>
      </trkpt>
      <trkpt lat="49.777299" lon="11.938907">
        <ele>489.667502</ele>
        <time>2021-11-28T07:23:40.591Z</time>
      </trkpt>
      <trkpt lat="49.777327" lon="11.939057">
        <ele>490.270437</ele>
        <time>2021-11-28T07:23:48.578Z</time>
      </trkpt>
      <trkpt lat="49.777367" lon="11.939200">
        <ele>490.872206</ele>
        <time>2021-11-28T07:23:56.592Z</time>
      </trkpt>
      <trkpt lat="49.777418" lon="11.939317">
        <ele>491.417293</ele>
        <time>2021-11-28T07:24:04.593Z</time>
      </trkpt>
      <trkpt lat="49.777475" lon="11.939429">
        <ele>491.967945</ele>
        <time>2021-11-28T07:24:11.585Z</time>
      </trkpt>
      <trkpt lat="49.777543" lon="11.939523">
        <ele>492.513009</ele>
        <time>2021-11-28T07:24:19.588Z</time>
      </trkpt>
      <trkpt lat="49.777613" lon="11.939632">
        <ele>493.106613</ele>
        <time>2021-11-28T07:24:27.593Z</time>
      </trkpt>
      <trkpt lat="49.777679" lon="11.939736">
        <ele>493.669670</ele>
        <time>2021-11-28T07:24:34.601Z</time>
      </trkpt>
      <trkpt lat="49.777754" lon="11.939840">
        <ele>494.271674</ele>
        <time>2021-11-28T07:24:42.578Z</time>
      </trkpt>
      <trkpt lat="49.777816" lon="11.939959">
        <ele>494.848168</ele>
        <time>2021-11-28T07:24:50.584Z</time>
      </trkpt>
      <trkpt lat="49.777878" lon="11.940076">
        <ele>495.065758</ele>
        <time>2021-11-28T07:24:58.586Z</time>
      </trkpt>
      <trkpt lat="49.777924" lon="11.940197">
        <ele>495.267620</ele>
        <time>2021-11-28T07:25:06.586Z</time>
      </trkpt>
      <trkpt lat="49.777971" lon="11.940333">
        <ele>495.489378</ele>
        <time>2021-11-28T07:25:14.607Z</time>
      </trkpt>
      <trkpt lat="49.778021" lon="11.940460">
        <ele>495.703217</ele>
        <time>2021-11-28T07:25:22.586Z</time>
      </trkpt>
      <trkpt lat="49.778070" lon="11.940592">
        <ele>495.922106</ele>
        <time>2021-11-28T07:25:30.587Z</time>
      </trkpt>
      <trkpt lat="49.778119" lon="11.940723">
        <ele>496.139750</ele>
        <time>2021-11-28T07:25:38.593Z</time>
      </trkpt>
      <trkpt lat="49.778162" lon="11.940850">
        <ele>496.345905</ele>
        <time>2021-11-28T07:25:46.583Z</time>
      </trkpt>
      <trkpt lat="49.778217" lon="11.940980">
        <ele>496.569338</ele>
        <time>2021-11-28T07:25:54.584Z</time>
      </trkpt>
      <trkpt lat="49.778256" lon="11.941117">
        <ele>496.784583</ele>
        <time>2021-11-28T07:26:02.609Z</time>
      </trkpt>
      <trkpt lat="49.778298" lon="11.941253">
        <ele>497.001310</ele>
        <time>2021-11-28T07:26:10.597Z</time>
      </trkpt>
      <trkpt lat="49.778341" lon="11.941380">
        <ele>497.207465</ele>
        <time>2021-11-28T07:26:18.599Z</time>
      </trkpt>
      <trkpt lat="49.778389" lon="11.941499">
        <ele>497.409176</ele>
        <time>2021-11-28T07:26:25.596Z</time>
      </trkpt>
      <trkpt lat="49.778438" lon="11.941618">
        <ele>497.612076</ele>
        <time>2021-11-28T07:26:32.595Z</time>
      </trkpt>
      <trkpt lat="49.778494" lon="11.941748">
        <ele>497.836735</ele>
        <time>2021-11-28T07:26:40.577Z</time>
      </trkpt>
      <trkpt lat="49.778555" lon="11.941855">
        <ele>498.041931</ele>
        <time>2021-11-28T07:26:47.580Z</time>
      </trkpt>
      <trkpt lat="49.778628" lon="11.941966">
        <ele>498.269698</ele>
        <time>2021-11-28T07:26:55.582Z</time>
      </trkpt>
      <trkpt lat="49.778704" lon="11.942063">
        <ele>498.488957</ele>
        <time>2021-11-28T07:27:03.586Z</time>
      </trkpt>
      <trkpt lat="49.778772" lon="11.942167">
        <ele>498.701731</ele>
        <time>2021-11-28T07:27:11.583Z</time>
      </trkpt>
      <trkpt lat="49.778834" lon="11.942276">
        <ele>498.881821</ele>
        <time>2021-11-28T07:27:19.576Z</time>
      </trkpt>
      <trkpt lat="49.778897" lon="11.942397">
        <ele>499.008445</ele>
        <time>2021-11-28T07:27:28.595Z</time>
      </trkpt>
      <trkpt lat="49.778954" lon="11.942518">
        <ele>499.130460</ele>
        <time>2021-11-28T07:27:36.575Z</time>
      </trkpt>
      <trkpt lat="49.779018" lon="11.942635">
        <ele>499.255376</ele>
        <time>2021-11-28T07:27:44.579Z</time>
      </trkpt>
      <trkpt lat="49.779080" lon="11.942748">
        <ele>499.376175</ele>
        <time>2021-11-28T07:27:52.582Z</time>
      </trkpt>
      <trkpt lat="49.779144" lon="11.942871">
        <ele>499.504859</ele>
        <time>2021-11-28T07:28:01.587Z</time>
      </trkpt>
      <trkpt lat="49.779201" lon="11.942983">
        <ele>499.621031</ele>
        <time>2021-11-28T07:28:09.590Z</time>
      </trkpt>
      <trkpt lat="49.779272" lon="11.943091">
        <ele>499.746586</ele>
        <time>2021-11-28T07:28:17.577Z</time>
      </trkpt>
      <trkpt lat="49.779341" lon="11.943200">
        <ele>499.870934</ele>
        <time>2021-11-28T07:28:25.578Z</time>
      </trkpt>
      <trkpt lat="49.779404" lon="11.943301">
        <ele>499.985331</ele>
        <time>2021-11-28T07:28:32.575Z</time>
      </trkpt>
      <trkpt lat="49.779469" lon="11.943404">
        <ele>500.102656</ele>
        <time>2021-11-28T07:28:40.577Z</time>
      </trkpt>
      <trkpt lat="49.779540" lon="11.943512">
        <ele>500.228211</ele>
        <time>2021-11-28T07:28:48.573Z</time>
      </trkpt>
      <trkpt lat="49.779609" lon="11.943619">
        <ele>500.351400</ele>
        <time>2021-11-28T07:28:57.585Z</time>
      </trkpt>
      <trkpt lat="49.779681" lon="11.943716">
        <ele>500.471795</ele>
        <time>2021-11-28T07:29:05.584Z</time>
      </trkpt>
      <trkpt lat="49.779750" lon="11.943815">
        <ele>500.590462</ele>
        <time>2021-11-28T07:29:13.604Z</time>
      </trkpt>
      <trkpt lat="49.779823" lon="11.943907">
        <ele>500.709200</ele>
        <time>2021-11-28T07:29:21.577Z</time>
      </trkpt>
      <trkpt lat="49.779893" lon="11.944000">
        <ele>500.825555</ele>
        <time>2021-11-28T07:29:28.590Z</time>
      </trkpt>
      <trkpt lat="49.779964" lon="11.944094">
        <ele>500.943399</ele>
        <time>2021-11-28T07:29:36.586Z</time>
      </trkpt>
      <trkpt lat="49.780040" lon="11.944184">
        <ele>501.064098</ele>
        <time>2021-11-28T07:29:44.589Z</time>
      </trkpt>
      <trkpt lat="49.780118" lon="11.944269">
        <ele>500.943895</ele>
        <time>2021-11-28T07:29:52.587Z</time>
      </trkpt>
      <trkpt lat="49.780201" lon="11.944346">
        <ele>500.652682</ele>
        <time>2021-11-28T07:30:00.582Z</time>
      </trkpt>
      <trkpt lat="49.780284" lon="11.944408">
        <ele>500.375321</ele>
        <time>2021-11-28T07:30:08.589Z</time>
      </trkpt>
      <trkpt lat="49.780372" lon="11.944442">
        <ele>500.102334</ele>
        <time>2021-11-28T07:30:15.582Z</time>
      </trkpt>
      <trkpt lat="49.780467" lon="11.944493">
        <ele>499.799705</ele>
        <time>2021-11-28T07:30:23.583Z</time>
      </trkpt>
      <trkpt lat="49.780551" lon="11.944556">
        <ele>499.518788</ele>
        <time>2021-11-28T07:30:31.582Z</time>
      </trkpt>
      <trkpt lat="49.780636" lon="11.944633">
        <ele>499.222395</ele>
        <time>2021-11-28T07:30:39.576Z</time>
      </trkpt>
      <trkpt lat="49.780715" lon="11.944720">
        <ele>498.930627</ele>
        <time>2021-11-28T07:30:47.578Z</time>
      </trkpt>
      <trkpt lat="49.780775" lon="11.944833">
        <ele>498.646295</ele>
        <time>2021-11-28T07:30:55.583Z</time>
      </trkpt>
      <trkpt lat="49.780819" lon="11.944955">
        <ele>498.374709</ele>
        <time>2021-11-28T07:31:02.586Z</time>
      </trkpt>
      <trkpt lat="49.780875" lon="11.945070">
        <ele>498.094774</ele>
        <time>2021-11-28T07:31:10.584Z</time>
      </trkpt>
      <trkpt lat="49.780925" lon="11.945195">
        <ele>497.808999</ele>
        <time>2021-11-28T07:31:19.575Z</time>
      </trkpt>
      <trkpt lat="49.780995" lon="11.945298">
        <ele>497.518374</ele>
        <time>2021-11-28T07:31:29.603Z</time>
      </trkpt>
      <trkpt lat="49.781071" lon="11.945382">
        <ele>497.237344</ele>
        <time>2021-11-28T07:31:50.583Z</time>
      </trkpt>
      <trkpt lat="49.781144" lon="11.945465">
        <ele>496.964767</ele>
        <time>2021-11-28T07:32:01.576Z</time>
      </trkpt>
      <trkpt lat="49.781228" lon="11.945550">
        <ele>496.662754</ele>
        <time>2021-11-28T07:32:10.582Z</time>
      </trkpt>
      <trkpt lat="49.781320" lon="11.945604">
        <ele>496.366626</ele>
        <time>2021-11-28T07:32:20.600Z</time>
      </trkpt>
      <trkpt lat="49.781418" lon="11.945632">
        <ele>496.066681</ele>
        <time>2021-11-28T07:32:29.582Z</time>
      </trkpt>
      <trkpt lat="49.781510" lon="11.945651">
        <ele>495.787323</ele>
        <time>2021-11-28T07:32:36.598Z</time>
      </trkpt>
      <trkpt lat="49.781604" lon="11.945706">
        <ele>495.975419</ele>
        <time>2021-11-28T07:32:44.585Z</time>
      </trkpt>
      <trkpt lat="49.781671" lon="11.945819">
        <ele>496.358049</ele>
        <time>2021-11-28T07:32:53.582Z</time>
      </trkpt>
      <trkpt lat="49.781720" lon="11.945951">
        <ele>496.737798</ele>
        <time>2021-11-28T07:33:02.589Z</time>
      </trkpt>
      <trkpt lat="49.781756" lon="11.946088">
        <ele>497.106700</ele>
        <time>2021-11-28T07:33:10.580Z</time>
      </trkpt>
      <trkpt lat="49.781790" lon="11.946221">
        <ele>497.463466</ele>
        <time>2021-11-28T07:33:18.595Z</time>
      </trkpt>
      <trkpt lat="49.781853" lon="11.946322">
        <ele>497.813712</ele>
        <time>2021-11-28T07:33:26.574Z</time>
      </trkpt>
      <trkpt lat="49.781934" lon="11.946403">
        <ele>498.186138</ele>
        <time>2021-11-28T07:33:35.578Z</time>
      </trkpt>
      <trkpt lat="49.782031" lon="11.946415">
        <ele>498.562006</ele>
        <time>2021-11-28T07:33:44.600Z</time>
      </trkpt>
      <trkpt lat="49.782122" lon="11.946427">
        <ele>498.914776</ele>
        <time>2021-11-28T07:33:52.591Z</time>
      </trkpt>
      <trkpt lat="49.782217" lon="11.946419">
        <ele>499.282267</ele>
        <time>2021-11-28T07:34:01.579Z</time>
      </trkpt>
      <trkpt lat="49.782324" lon="11.946454">
        <ele>499.704685</ele>
        <time>2021-11-28T07:34:12.582Z</time>
      </trkpt>
      <trkpt lat="49.782436" lon="11.946474">
        <ele>500.140165</ele>
        <time>2021-11-28T07:34:23.577Z</time>
      </trkpt>
      <trkpt lat="49.782535" lon="11.946505">
        <ele>500.530302</ele>
        <time>2021-11-28T07:34:32.592Z</time>
      </trkpt>
      <trkpt lat="49.782628" lon="11.946495">
        <ele>500.890390</ele>
        <time>2021-11-28T07:34:41.579Z</time>
      </trkpt>
      <trkpt lat="49.782722" lon="11.946495">
        <ele>501.253477</ele>
        <time>2021-11-28T07:34:49.572Z</time>
      </trkpt>
      <trkpt lat="49.782811" lon="11.946516">
        <ele>501.601217</ele>
        <time>2021-11-28T07:34:58.574Z</time>
      </trkpt>
      <trkpt lat="49.782905" lon="11.946515">
        <ele>501.964311</ele>
        <time>2021-11-28T07:35:09.583Z</time>
      </trkpt>
      <trkpt lat="49.783004" lon="11.946492">
        <ele>502.350989</ele>
        <time>2021-11-28T07:35:17.572Z</time>
      </trkpt>
      <trkpt lat="49.783102" lon="11.946490">
        <ele>502.765455</ele>
        <time>2021-11-28T07:35:29.576Z</time>
      </trkpt>
      <trkpt lat="49.783192" lon="11.946500">
        <ele>503.265872</ele>
        <time>2021-11-28T07:35:38.595Z</time>
      </trkpt>
      <trkpt lat="49.783308" lon="11.946504">
        <ele>503.909360</ele>
        <time>2021-11-28T07:35:49.580Z</time>
      </trkpt>
      <trkpt lat="49.783405" lon="11.946515">
        <ele>504.448756</ele>
        <time>2021-11-28T07:35:58.569Z</time>
      </trkpt>
      <trkpt lat="49.783499" lon="11.946564">
        <ele>504.998810</ele>
        <time>2021-11-28T07:36:07.577Z</time>
      </trkpt>
      <trkpt lat="49.783593" lon="11.946599">
        <ele>505.534981</ele>
        <time>2021-11-28T07:36:14.584Z</time>
      </trkpt>
      <trkpt lat="49.783678" lon="11.946650">
        <ele>506.040525</ele>
        <time>2021-11-28T07:36:22.590Z</time>
      </trkpt>
      <trkpt lat="49.783785" lon="11.946727">
        <ele>506.694869</ele>
        <time>2021-11-28T07:36:32.575Z</time>
      </trkpt>
      <trkpt lat="49.783880" lon="11.946776">
        <ele>507.250182</ele>
        <time>2021-11-28T07:36:39.576Z</time>
      </trkpt>
      <trkpt lat="49.783970" lon="11.946829">
        <ele>507.784179</ele>
        <time>2021-11-28T07:36:47.578Z</time>
      </trkpt>
      <trkpt lat="49.784057" lon="11.946901">
        <ele>508.331239</ele>
        <time>2021-11-28T07:36:54.589Z</time>
      </trkpt>
      <trkpt lat="49.784105" lon="11.947028">
        <ele>508.858190</ele>
        <time>2021-11-28T07:37:02.586Z</time>
      </trkpt>
      <trkpt lat="49.784138" lon="11.947164">
        <ele>509.378438</ele>
        <time>2021-11-28T07:37:10.601Z</time>
      </trkpt>
      <trkpt lat="49.784146" lon="11.947312">
        <ele>509.910256</ele>
        <time>2021-11-28T07:37:18.590Z</time>
      </trkpt>
      <trkpt lat="49.784155" lon="11.947465">
        <ele>510.460393</ele>
        <time>2021-11-28T07:37:27.590Z</time>
      </trkpt>
      <trkpt lat="49.784164" lon="11.947608">
        <ele>510.974880</ele>
        <time>2021-11-28T07:37:35.584Z</time>
      </trkpt>
      <trkpt lat="49.784181" lon="11.947754">
        <ele>511.506115</ele>
        <time>2021-11-28T07:37:43.587Z</time>
      </trkpt>
      <trkpt lat="49.784194" lon="11.947903">
        <ele>512.044508</ele>
        <time>2021-11-28T07:37:51.574Z</time>
      </trkpt>
      <trkpt lat="49.784213" lon="11.948050">
        <ele>512.581334</ele>
        <time>2021-11-28T07:37:59.586Z</time>
      </trkpt>
      <trkpt lat="49.784231" lon="11.948195">
        <ele>513.269268</ele>
        <time>2021-11-28T07:38:07.582Z</time>
      </trkpt>
      <trkpt lat="49.784260" lon="11.948340">
        <ele>513.990259</ele>
        <time>2021-11-28T07:38:16.591Z</time>
      </trkpt>
      <trkpt lat="49.784295" lon="11.948476">
        <ele>514.685640</ele>
        <time>2021-11-28T07:38:24.592Z</time>
      </trkpt>
      <trkpt lat="49.784310" lon="11.948624">
        <ele>515.397203</ele>
        <time>2021-11-28T07:38:33.576Z</time>
      </trkpt>
      <trkpt lat="49.784319" lon="11.948764">
        <ele>516.065448</ele>
        <time>2021-11-28T07:38:41.581Z</time>
      </trkpt>
      <trkpt lat="49.784344" lon="11.948906">
        <ele>516.764529</ele>
        <time>2021-11-28T07:38:49.567Z</time>
      </trkpt>
      <trkpt lat="49.784367" lon="11.949055">
        <ele>517.492177</ele>
        <time>2021-11-28T07:38:57.572Z</time>
      </trkpt>
      <trkpt lat="49.784392" lon="11.949195">
        <ele>518.182097</ele>
        <time>2021-11-28T07:39:06.583Z</time>
      </trkpt>
      <trkpt lat="49.784408" lon="11.949335">
        <ele>518.857390</ele>
        <time>2021-11-28T07:39:14.589Z</time>
      </trkpt>
      <trkpt lat="49.784439" lon="11.949474">
        <ele>519.555872</ele>
        <time>2021-11-28T07:39:23.583Z</time>
      </trkpt>
      <trkpt lat="49.784461" lon="11.949619">
        <ele>520.263336</ele>
        <time>2021-11-28T07:39:31.583Z</time>
      </trkpt>
      <trkpt lat="49.784491" lon="11.949751">
        <ele>520.928001</ele>
        <time>2021-11-28T07:39:39.577Z</time>
      </trkpt>
      <trkpt lat="49.784526" lon="11.949898">
        <ele>521.672163</ele>
        <time>2021-11-28T07:39:48.580Z</time>
      </trkpt>
      <trkpt lat="49.784566" lon="11.950026">
        <ele>522.347586</ele>
        <time>2021-11-28T07:39:56.578Z</time>
      </trkpt>
      <trkpt lat="49.784613" lon="11.950153">
        <ele>523.042856</ele>
        <time>2021-11-28T07:40:04.580Z</time>
      </trkpt>
      <trkpt lat="49.784647" lon="11.950291">
        <ele>523.744409</ele>
        <time>2021-11-28T07:40:13.584Z</time>
      </trkpt>
      <trkpt lat="49.784685" lon="11.950429">
        <ele>524.456982</ele>
        <time>2021-11-28T07:40:21.572Z</time>
      </trkpt>
      <trkpt lat="49.784727" lon="11.950561">
        <ele>525.155932</ele>
        <time>2021-11-28T07:40:30.580Z</time>
      </trkpt>
      <trkpt lat="49.784777" lon="11.950684">
        <ele>525.846283</ele>
        <time>2021-11-28T07:40:42.579Z</time>
      </trkpt>
      <trkpt lat="49.784807" lon="11.950833">
        <ele>526.675291</ele>
        <time>2021-11-28T07:40:51.570Z</time>
      </trkpt>
      <trkpt lat="49.784849" lon="11.950970">
        <ele>527.481688</ele>
        <time>2021-11-28T07:41:01.601Z</time>
      </trkpt>
      <trkpt lat="49.784891" lon="11.951101">
        <ele>528.259385</ele>
        <time>2021-11-28T07:41:10.579Z</time>
      </trkpt>
      <trkpt lat="49.784948" lon="11.951219">
        <ele>529.042972</ele>
        <time>2021-11-28T07:41:19.577Z</time>
      </trkpt>
      <trkpt lat="49.784994" lon="11.951349">
        <ele>529.831201</ele>
        <time>2021-11-28T07:41:28.575Z</time>
      </trkpt>
      <trkpt lat="49.785039" lon="11.951485">
        <ele>530.643761</ele>
        <time>2021-11-28T07:41:37.590Z</time>
      </trkpt>
      <trkpt lat="49.785102" lon="11.951598">
        <ele>531.437600</ele>
        <time>2021-11-28T07:41:46.592Z</time>
      </trkpt>
      <trkpt lat="49.785134" lon="11.951746">
        <ele>532.267490</ele>
        <time>2021-11-28T07:41:56.585Z</time>
      </trkpt>
      <trkpt lat="49.785172" lon="11.951875">
        <ele>533.021416</ele>
        <time>2021-11-28T07:42:04.591Z</time>
      </trkpt>
      <trkpt lat="49.785224" lon="11.951992">
        <ele>533.776662</ele>
        <time>2021-11-28T07:42:13.588Z</time>
      </trkpt>
      <trkpt lat="49.785283" lon="11.952105">
        <ele>534.549373</ele>
        <time>2021-11-28T07:42:21.578Z</time>
      </trkpt>
      <trkpt lat="49.785333" lon="11.952225">
        <ele>535.308756</ele>
        <time>2021-11-28T07:42:31.564Z</time>
      </trkpt>
      <trkpt lat="49.785374" lon="11.952356">
        <ele>536.082820</ele>
        <time>2021-11-28T07:42:41.583Z</time>
      </trkpt>
      <trkpt lat="49.785431" lon="11.952476">
        <ele>536.874941</ele>
        <time>2021-11-28T07:42:50.580Z</time>
      </trkpt>
      <trkpt lat="49.785491" lon="11.952580">
        <ele>537.616517</ele>
        <time>2021-11-28T07:42:59.577Z</time>
      </trkpt>
      <trkpt lat="49.785555" lon="11.952698">
        <ele>538.435932</ele>
        <time>2021-11-28T07:43:09.588Z</time>
      </trkpt>
      <trkpt lat="49.785617" lon="11.952818">
        <ele>539.253126</ele>
        <time>2021-11-28T07:43:18.575Z</time>
      </trkpt>
      <trkpt lat="49.785663" lon="11.952953">
        <ele>540.064761</ele>
        <time>2021-11-28T07:43:28.569Z</time>
      </trkpt>
      <trkpt lat="49.785717" lon="11.953083">
        <ele>540.816940</ele>
        <time>2021-11-28T07:43:38.588Z</time>
      </trkpt>
      <trkpt lat="49.785768" lon="11.953216">
        <ele>541.379601</ele>
        <time>2021-11-28T07:43:47.578Z</time>
      </trkpt>
      <trkpt lat="49.785826" lon="11.953342">
        <ele>541.942465</ele>
        <time>2021-11-28T07:43:56.576Z</time>
      </trkpt>
      <trkpt lat="49.785885" lon="11.953463">
        <ele>542.493999</ele>
        <time>2021-11-28T07:44:06.589Z</time>
      </trkpt>
      <trkpt lat="49.785932" lon="11.953583">
        <ele>543.004518</ele>
        <time>2021-11-28T07:44:15.585Z</time>
      </trkpt>
      <trkpt lat="49.785984" lon="11.953702">
        <ele>543.527181</ele>
        <time>2021-11-28T07:44:24.576Z</time>
      </trkpt>
      <trkpt lat="49.786035" lon="11.953824">
        <ele>544.055833</ele>
        <time>2021-11-28T07:44:34.594Z</time>
      </trkpt>
      <trkpt lat="49.786085" lon="11.953953">
        <ele>544.603111</ele>
        <time>2021-11-28T07:44:44.577Z</time>
      </trkpt>
      <trkpt lat="49.786113" lon="11.954102">
        <ele>545.167567</ele>
        <time>2021-11-28T07:44:54.581Z</time>
      </trkpt>
      <trkpt lat="49.786147" lon="11.954232">
        <ele>545.677746</ele>
        <time>2021-11-28T07:45:02.567Z</time>
      </trkpt>
      <trkpt lat="49.786177" lon="11.954378">
        <ele>546.235045</ele>
        <time>2021-11-28T07:45:12.578Z</time>
      </trkpt>
      <trkpt lat="49.786199" lon="11.954521">
        <ele>546.769749</ele>
        <time>2021-11-28T07:45:21.583Z</time>
      </trkpt>
      <trkpt lat="49.786292" lon="11.954536">
        <ele>547.296516</ele>
        <time>2021-11-28T07:45:30.591Z</time>
      </trkpt>
      <trkpt lat="49.786376" lon="11.954453">
        <ele>547.857845</ele>
        <time>2021-11-28T07:45:40.581Z</time>
      </trkpt>
      <trkpt lat="49.786454" lon="11.954376">
        <ele>548.378939</ele>
        <time>2021-11-28T07:45:48.571Z</time>
      </trkpt>
      <trkpt lat="49.786532" lon="11.954297">
        <ele>548.903978</ele>
        <time>2021-11-28T07:45:56.590Z</time>
      </trkpt>
      <trkpt lat="49.786612" lon="11.954223">
        <ele>549.428930</ele>
        <time>2021-11-28T07:46:10.574Z</time>
      </trkpt>
      <trkpt lat="49.786701" lon="11.954168">
        <ele>549.968765</ele>
        <time>2021-11-28T07:46:23.586Z</time>
      </trkpt>
      <trkpt lat="49.786785" lon="11.954221">
        <ele>550.479755</ele>
        <time>2021-11-28T07:46:34.572Z</time>
      </trkpt>
      <trkpt lat="49.786813" lon="11.954365">
        <ele>550.874363</ele>
        <time>2021-11-28T07:46:43.576Z</time>
      </trkpt>
      <trkpt lat="49.786826" lon="11.954514">
        <ele>551.055424</ele>
        <time>2021-11-28T07:46:51.578Z</time>
      </trkpt>
      <trkpt lat="49.786836" lon="11.954657">
        <ele>551.228636</ele>
        <time>2021-11-28T07:46:59.577Z</time>
      </trkpt>
      <trkpt lat="49.786855" lon="11.954801">
        <ele>551.405630</ele>
        <time>2021-11-28T07:47:08.579Z</time>
      </trkpt>
      <trkpt lat="49.786896" lon="11.954925">
        <ele>551.573397</ele>
        <time>2021-11-28T07:47:15.578Z</time>
      </trkpt>
      <trkpt lat="49.786939" lon="11.955058">
        <ele>551.752519</ele>
        <time>2021-11-28T07:47:24.581Z</time>
      </trkpt>
      <trkpt lat="49.786981" lon="11.955187">
        <ele>551.926499</ele>
        <time>2021-11-28T07:47:33.574Z</time>
      </trkpt>
      <trkpt lat="49.787018" lon="11.955316">
        <ele>552.096484</ele>
        <time>2021-11-28T07:47:41.588Z</time>
      </trkpt>
      <trkpt lat="49.787063" lon="11.955443">
        <ele>552.270938</ele>
        <time>2021-11-28T07:47:49.583Z</time>
      </trkpt>
      <trkpt lat="49.787107" lon="11.955575">
        <ele>552.449832</ele>
        <time>2021-11-28T07:47:57.585Z</time>
      </trkpt>
      <trkpt lat="49.787145" lon="11.955715">
        <ele>552.632716</ele>
        <time>2021-11-28T07:48:05.582Z</time>
      </trkpt>
      <trkpt lat="49.787186" lon="11.955844">
        <ele>552.805863</ele>
        <time>2021-11-28T07:48:13.586Z</time>
      </trkpt>
      <trkpt lat="49.787219" lon="11.955979">
        <ele>552.979695</ele>
        <time>2021-11-28T07:48:20.584Z</time>
      </trkpt>
      <trkpt lat="49.787255" lon="11.956111">
        <ele>553.152253</ele>
        <time>2021-11-28T07:48:27.582Z</time>
      </trkpt>
      <trkpt lat="49.787308" lon="11.956243">
        <ele>553.339442</ele>
        <time>2021-11-28T07:48:34.571Z</time>
      </trkpt>
      <trkpt lat="49.787340" lon="11.956381">
        <ele>553.516017</ele>
        <time>2021-11-28T07:48:42.571Z</time>
      </trkpt>
      <trkpt lat="49.787366" lon="11.956516">
        <ele>553.685666</ele>
        <time>2021-11-28T07:48:49.582Z</time>
      </trkpt>
      <trkpt lat="49.787399" lon="11.956660">
        <ele>553.869673</ele>
        <time>2021-11-28T07:48:57.562Z</time>
      </trkpt>
      <trkpt lat="49.787434" lon="11.956789">
        <ele>554.038177</ele>
        <time>2021-11-28T07:49:04.567Z</time>
      </trkpt>
      <trkpt lat="49.787475" lon="11.956934">
        <ele>554.168666</ele>
        <time>2021-11-28T07:49:13.568Z</time>
      </trkpt>
      <trkpt lat="49.787508" lon="11.957065">
        <ele>554.202320</ele>
        <time>2021-11-28T07:49:20.583Z</time>
      </trkpt>
      <trkpt lat="49.787535" lon="11.957218">
        <ele>554.240281</ele>
        <time>2021-11-28T07:49:28.595Z</time>
      </trkpt>
      <trkpt lat="49.787573" lon="11.957358">
        <ele>554.276628</ele>
        <time>2021-11-28T07:49:36.563Z</time>
      </trkpt>
      <trkpt lat="49.787600" lon="11.957495">
        <ele>554.310910</ele>
        <time>2021-11-28T07:49:44.583Z</time>
      </trkpt>
      <trkpt lat="49.787629" lon="11.957632">
        <ele>554.345416</ele>
        <time>2021-11-28T07:49:51.564Z</time>
      </trkpt>
      <trkpt lat="49.787664" lon="11.957775">
        <ele>554.382017</ele>
        <time>2021-11-28T07:49:59.566Z</time>
      </trkpt>
      <trkpt lat="49.787689" lon="11.957910">
        <ele>554.415630</ele>
        <time>2021-11-28T07:50:07.580Z</time>
      </trkpt>
      <trkpt lat="49.787718" lon="11.958042">
        <ele>554.449000</ele>
        <time>2021-11-28T07:50:15.565Z</time>
      </trkpt>
      <trkpt lat="49.787748" lon="11.958192">
        <ele>554.486583</ele>
        <time>2021-11-28T07:50:23.565Z</time>
      </trkpt>
      <trkpt lat="49.787778" lon="11.958343">
        <ele>554.524394</ele>
        <time>2021-11-28T07:50:31.579Z</time>
      </trkpt>
      <trkpt lat="49.787801" lon="11.958491">
        <ele>554.560827</ele>
        <time>2021-11-28T07:50:41.585Z</time>
      </trkpt>
      <trkpt lat="49.787820" lon="11.958634">
        <ele>554.595768</ele>
        <time>2021-11-28T07:50:48.584Z</time>
      </trkpt>
      <trkpt lat="49.787833" lon="11.958785">
        <ele>554.632227</ele>
        <time>2021-11-28T07:50:56.576Z</time>
      </trkpt>
      <trkpt lat="49.787854" lon="11.958934">
        <ele>554.668727</ele>
        <time>2021-11-28T07:51:04.578Z</time>
      </trkpt>
      <trkpt lat="49.787873" lon="11.959086">
        <ele>554.705781</ele>
        <time>2021-11-28T07:51:12.573Z</time>
      </trkpt>
      <trkpt lat="49.787887" lon="11.959235">
        <ele>554.741816</ele>
        <time>2021-11-28T07:51:20.581Z</time>
      </trkpt>
      <trkpt lat="49.787911" lon="11.959380">
        <ele>554.777642</ele>
        <time>2021-11-28T07:51:28.560Z</time>
      </trkpt>
      <trkpt lat="49.787920" lon="11.959523">
        <ele>554.812028</ele>
        <time>2021-11-28T07:51:36.588Z</time>
      </trkpt>
      <trkpt lat="49.787936" lon="11.959668">
        <ele>554.637731</ele>
        <time>2021-11-28T07:51:43.569Z</time>
      </trkpt>
      <trkpt lat="49.787959" lon="11.959804">
        <ele>554.407664</ele>
        <time>2021-11-28T07:51:50.582Z</time>
      </trkpt>
      <trkpt lat="49.787973" lon="11.959944">
        <ele>554.175829</ele>
        <time>2021-11-28T07:51:57.573Z</time>
      </trkpt>
      <trkpt lat="49.787979" lon="11.960085">
        <ele>553.944588</ele>
        <time>2021-11-28T07:52:04.575Z</time>
      </trkpt>
      <trkpt lat="49.787977" lon="11.960230">
        <ele>553.707248</ele>
        <time>2021-11-28T07:52:12.576Z</time>
      </trkpt>
      <trkpt lat="49.787987" lon="11.960374">
        <ele>553.470240</ele>
        <time>2021-11-28T07:52:19.575Z</time>
      </trkpt>
      <trkpt lat="49.787993" lon="11.960525">
        <ele>553.222667</ele>
        <time>2021-11-28T07:52:28.583Z</time>
      </trkpt>
      <trkpt lat="49.787990" lon="11.960668">
        <ele>552.988531</ele>
        <time>2021-11-28T07:52:35.567Z</time>
      </trkpt>
      <trkpt lat="49.787996" lon="11.960807">
        <ele>552.760556</ele>
        <time>2021-11-28T07:52:42.576Z</time>
      </trkpt>
      <trkpt lat="49.787988" lon="11.960961">
        <ele>552.507728</ele>
        <time>2021-11-28T07:52:50.594Z</time>
      </trkpt>
      <trkpt lat="49.787992" lon="11.961105">
        <ele>552.271861</ele>
        <time>2021-11-28T07:52:58.577Z</time>
      </trkpt>
      <trkpt lat="49.787989" lon="11.961259">
        <ele>552.019732</ele>
        <time>2021-11-28T07:53:12.580Z</time>
      </trkpt>
      <trkpt lat="49.787994" lon="11.961400">
        <ele>551.788645</ele>
        <time>2021-11-28T07:53:21.584Z</time>
      </trkpt>
      <trkpt lat="49.787999" lon="11.961539">
        <ele>551.560825</ele>
        <time>2021-11-28T07:53:28.582Z</time>
      </trkpt>
      <trkpt lat="49.788010" lon="11.961681">
        <ele>551.326782</ele>
        <time>2021-11-28T07:53:35.572Z</time>
      </trkpt>
      <trkpt lat="49.788016" lon="11.961820">
        <ele>551.098807</ele>
        <time>2021-11-28T07:53:42.583Z</time>
      </trkpt>
      <trkpt lat="49.788023" lon="11.961970">
        <ele>550.852699</ele>
        <time>2021-11-28T07:53:49.579Z</time>
      </trkpt>
      <trkpt lat="49.788032" lon="11.962119">
        <ele>550.607802</ele>
        <time>2021-11-28T07:53:57.572Z</time>
      </trkpt>
      <trkpt lat="49.788038" lon="11.962269">
        <ele>550.361864</ele>
        <time>2021-11-28T07:54:05.575Z</time>
      </trkpt>
      <trkpt lat="49.788032" lon="11.962418">
        <ele>550.021343</ele>
        <time>2021-11-28T07:54:13.577Z</time>
      </trkpt>
      <trkpt lat="49.788028" lon="11.962577">
        <ele>549.586851</ele>
        <time>2021-11-28T07:54:21.579Z</time>
      </trkpt>
      <trkpt lat="49.788034" lon="11.962729">
        <ele>549.171028</ele>
        <time>2021-11-28T07:54:29.582Z</time>
      </trkpt>
      <trkpt lat="49.788040" lon="11.962879">
        <ele>548.760655</ele>
        <time>2021-11-28T07:54:36.591Z</time>
      </trkpt>
      <trkpt lat="49.788051" lon="11.963020">
        <ele>548.372843</ele>
        <time>2021-11-28T07:54:44.567Z</time>
      </trkpt>
      <trkpt lat="49.788041" lon="11.963172">
        <ele>547.955645</ele>
        <time>2021-11-28T07:54:52.579Z</time>
      </trkpt>
      <trkpt lat="49.788062" lon="11.963314">
        <ele>547.557861</ele>
        <time>2021-11-28T07:55:00.589Z</time>
      </trkpt>
      <trkpt lat="49.788112" lon="11.963441">
        <ele>547.151685</ele>
        <time>2021-11-28T07:55:09.590Z</time>
      </trkpt>
      <trkpt lat="49.788161" lon="11.963560">
        <ele>546.766284</ele>
        <time>2021-11-28T07:55:17.581Z</time>
      </trkpt>
      <trkpt lat="49.788182" lon="11.963707">
        <ele>546.355181</ele>
        <time>2021-11-28T07:55:25.574Z</time>
      </trkpt>
      <trkpt lat="49.788185" lon="11.963850">
        <ele>545.964503</ele>
        <time>2021-11-28T07:55:32.572Z</time>
      </trkpt>
      <trkpt lat="49.788192" lon="11.963990">
        <ele>545.581078</ele>
        <time>2021-11-28T07:55:39.586Z</time>
      </trkpt>
      <trkpt lat="49.788200" lon="11.964131">
        <ele>545.194584</ele>
        <time>2021-11-28T07:55:46.577Z</time>
      </trkpt>
      <trkpt lat="49.788200" lon="11.964273">
        <ele>544.806843</ele>
        <time>2021-11-28T07:55:55.571Z</time>
      </trkpt>
      <trkpt lat="49.788218" lon="11.964418">
        <ele>544.403657</ele>
        <time>2021-11-28T07:56:03.577Z</time>
      </trkpt>
      <trkpt lat="49.788233" lon="11.964569">
        <ele>543.986489</ele>
        <time>2021-11-28T07:56:10.566Z</time>
      </trkpt>
      <trkpt lat="49.788251" lon="11.964721">
        <ele>543.564518</ele>
        <time>2021-11-28T07:56:18.595Z</time>
      </trkpt>
      <trkpt lat="49.788276" lon="11.964873">
        <ele>543.136216</ele>
        <time>2021-11-28T07:56:26.586Z</time>
      </trkpt>
      <trkpt lat="49.788308" lon="11.965005">
        <ele>542.751208</ele>
        <time>2021-11-28T07:56:33.576Z</time>
      </trkpt>
      <trkpt lat="49.788336" lon="11.965146">
        <ele>542.321764</ele>
        <time>2021-11-28T07:56:41.568Z</time>
      </trkpt>
      <trkpt lat="49.788366" lon="11.965286">
        <ele>541.883905</ele>
        <time>2021-11-28T07:56:49.585Z</time>
      </trkpt>
      <trkpt lat="49.788409" lon="11.965421">
        <ele>541.437066</ele>
        <time>2021-11-28T07:56:57.566Z</time>
      </trkpt>
      <trkpt lat="49.788452" lon="11.965545">
        <ele>541.019259</ele>
        <time>2021-11-28T07:57:04.567Z</time>
      </trkpt>
      <trkpt lat="49.788493" lon="11.965683">
        <ele>540.568337</ele>
        <time>2021-11-28T07:57:12.569Z</time>
      </trkpt>
      <trkpt lat="49.788535" lon="11.965809">
        <ele>540.147420</ele>
        <time>2021-11-28T07:57:20.568Z</time>
      </trkpt>
      <trkpt lat="49.788577" lon="11.965942">
        <ele>539.707938</ele>
        <time>2021-11-28T07:57:28.584Z</time>
      </trkpt>
      <trkpt lat="49.788629" lon="11.966073">
        <ele>539.251470</ele>
        <time>2021-11-28T07:57:37.588Z</time>
      </trkpt>
      <trkpt lat="49.788674" lon="11.966206">
        <ele>538.805755</ele>
        <time>2021-11-28T07:57:45.578Z</time>
      </trkpt>
      <trkpt lat="49.788726" lon="11.966331">
        <ele>538.364361</ele>
        <time>2021-11-28T07:57:53.594Z</time>
      </trkpt>
      <trkpt lat="49.788777" lon="11.966448">
        <ele>537.945322</ele>
        <time>2021-11-28T07:58:02.590Z</time>
      </trkpt>
      <trkpt lat="49.788833" lon="11.966560">
        <ele>537.524829</ele>
        <time>2021-11-28T07:58:10.585Z</time>
      </trkpt>
      <trkpt lat="49.788898" lon="11.966663">
        <ele>537.097295</ele>
        <time>2021-11-28T07:58:18.581Z</time>
      </trkpt>
      <trkpt lat="49.788959" lon="11.966776">
        <ele>536.660074</ele>
        <time>2021-11-28T07:58:27.600Z</time>
      </trkpt>
      <trkpt lat="49.789011" lon="11.966892">
        <ele>536.240888</ele>
        <time>2021-11-28T07:58:35.576Z</time>
      </trkpt>
      <trkpt lat="49.789086" lon="11.967004">
        <ele>535.761902</ele>
        <time>2021-11-28T08:01:19.586Z</time>
      </trkpt>
      <trkpt lat="49.789082" lon="11.967145">
        <ele>535.342970</ele>
        <time>2021-11-28T08:01:30.581Z</time>
      </trkpt>
      <trkpt lat="49.789000" lon="11.967206">
        <ele>534.924734</ele>
        <time>2021-11-28T08:02:26.581Z</time>
      </trkpt>
      <trkpt lat="49.788950" lon="11.967331">
        <ele>534.488253</ele>
        <time>2021-11-28T08:02:44.570Z</time>
      </trkpt>
      <trkpt lat="49.788885" lon="11.967440">
        <ele>534.422615</ele>
        <time>2021-11-28T08:02:52.595Z</time>
      </trkpt>
      <trkpt lat="49.788806" lon="11.967509">
        <ele>534.469608</ele>
        <time>2021-11-28T08:03:03.568Z</time>
      </trkpt>
      <trkpt lat="49.788737" lon="11.967609">
        <ele>534.518569</ele>
        <time>2021-11-28T08:03:13.569Z</time>
      </trkpt>
      <trkpt lat="49.788685" lon="11.967732">
        <ele>534.567751</ele>
        <time>2021-11-28T08:03:20.585Z</time>
      </trkpt>
      <trkpt lat="49.788624" lon="11.967854">
        <ele>534.619370</ele>
        <time>2021-11-28T08:03:28.576Z</time>
      </trkpt>
      <trkpt lat="49.788560" lon="11.967969">
        <ele>534.670159</ele>
        <time>2021-11-28T08:03:36.577Z</time>
      </trkpt>
      <trkpt lat="49.788509" lon="11.968088">
        <ele>534.717939</ele>
        <time>2021-11-28T08:03:43.599Z</time>
      </trkpt>
      <trkpt lat="49.788460" lon="11.968215">
        <ele>534.767432</ele>
        <time>2021-11-28T08:03:51.568Z</time>
      </trkpt>
      <trkpt lat="49.788416" lon="11.968350">
        <ele>534.818020</ele>
        <time>2021-11-28T08:04:00.576Z</time>
      </trkpt>
      <trkpt lat="49.788380" lon="11.968481">
        <ele>534.865647</ele>
        <time>2021-11-28T08:04:09.585Z</time>
      </trkpt>
      <trkpt lat="49.788341" lon="11.968628">
        <ele>534.918811</ele>
        <time>2021-11-28T08:04:18.585Z</time>
      </trkpt>
      <trkpt lat="49.788300" lon="11.968753">
        <ele>534.965713</ele>
        <time>2021-11-28T08:04:26.580Z</time>
      </trkpt>
      <trkpt lat="49.788256" lon="11.968882">
        <ele>535.014518</ele>
        <time>2021-11-28T08:04:34.588Z</time>
      </trkpt>
      <trkpt lat="49.788206" lon="11.969004">
        <ele>535.062858</ele>
        <time>2021-11-28T08:04:42.578Z</time>
      </trkpt>
      <trkpt lat="49.788162" lon="11.969126">
        <ele>535.109605</ele>
        <time>2021-11-28T08:04:49.587Z</time>
      </trkpt>
      <trkpt lat="49.788101" lon="11.969244">
        <ele>535.160173</ele>
        <time>2021-11-28T08:04:58.570Z</time>
      </trkpt>
      <trkpt lat="49.788037" lon="11.969352">
        <ele>535.209213</ele>
        <time>2021-11-28T08:05:06.584Z</time>
      </trkpt>
      <trkpt lat="49.787989" lon="11.969471">
        <ele>535.256152</ele>
        <time>2021-11-28T08:05:14.587Z</time>
      </trkpt>
      <trkpt lat="49.787947" lon="11.969598">
        <ele>535.303885</ele>
        <time>2021-11-28T08:05:21.588Z</time>
      </trkpt>
      <trkpt lat="49.787903" lon="11.969722">
        <ele>535.493302</ele>
        <time>2021-11-28T08:05:29.588Z</time>
      </trkpt>
      <trkpt lat="49.787874" lon="11.969862">
        <ele>535.744388</ele>
        <time>2021-11-28T08:05:37.576Z</time>
      </trkpt>
      <trkpt lat="49.787863" lon="11.970019">
        <ele>536.014074</ele>
        <time>2021-11-28T08:05:46.586Z</time>
      </trkpt>
      <trkpt lat="49.787867" lon="11.970178">
        <ele>536.285808</ele>
        <time>2021-11-28T08:05:55.582Z</time>
      </trkpt>
      <trkpt lat="49.787863" lon="11.970334">
        <ele>536.552423</ele>
        <time>2021-11-28T08:06:04.587Z</time>
      </trkpt>
      <trkpt lat="49.787828" lon="11.970466">
        <ele>536.796112</ele>
        <time>2021-11-28T08:06:12.574Z</time>
      </trkpt>
      <trkpt lat="49.787770" lon="11.970634">
        <ele>537.121453</ele>
        <time>2021-11-28T08:06:55.589Z</time>
      </trkpt>
      <trkpt lat="49.787723" lon="11.970755">
        <ele>537.362603</ele>
        <time>2021-11-28T08:07:04.599Z</time>
      </trkpt>
      <trkpt lat="49.787661" lon="11.970876">
        <ele>537.626407</ele>
        <time>2021-11-28T08:07:12.570Z</time>
      </trkpt>
      <trkpt lat="49.787592" lon="11.970967">
        <ele>537.866116</ele>
        <time>2021-11-28T08:07:20.589Z</time>
      </trkpt>
      <trkpt lat="49.787524" lon="11.971066">
        <ele>538.112966</ele>
        <time>2021-11-28T08:07:27.589Z</time>
      </trkpt>
      <trkpt lat="49.787459" lon="11.971167">
        <ele>538.356503</ele>
        <time>2021-11-28T08:07:35.584Z</time>
      </trkpt>
      <trkpt lat="49.787387" lon="11.971272">
        <ele>538.618081</ele>
        <time>2021-11-28T08:07:45.596Z</time>
      </trkpt>
      <trkpt lat="49.787323" lon="11.971392">
        <ele>538.883888</ele>
        <time>2021-11-28T08:07:56.572Z</time>
      </trkpt>
      <trkpt lat="49.787263" lon="11.971499">
        <ele>539.125915</ele>
        <time>2021-11-28T08:08:05.589Z</time>
      </trkpt>
      <trkpt lat="49.787211" lon="11.971618">
        <ele>539.371307</ele>
        <time>2021-11-28T08:08:14.591Z</time>
      </trkpt>
      <trkpt lat="49.787172" lon="11.971745">
        <ele>539.611475</ele>
        <time>2021-11-28T08:08:22.574Z</time>
      </trkpt>
      <trkpt lat="49.787131" lon="11.971874">
        <ele>539.857021</ele>
        <time>2021-11-28T08:08:30.582Z</time>
      </trkpt>
      <trkpt lat="49.787114" lon="11.972014">
        <ele>540.108286</ele>
        <time>2021-11-28T08:08:37.570Z</time>
      </trkpt>
      <trkpt lat="49.787097" lon="11.972162">
        <ele>540.443527</ele>
        <time>2021-11-28T08:08:45.582Z</time>
      </trkpt>
      <trkpt lat="49.787072" lon="11.972300">
        <ele>540.763169</ele>
        <time>2021-11-28T08:08:53.580Z</time>
      </trkpt>
      <trkpt lat="49.787055" lon="11.972452">
        <ele>541.107197</ele>
        <time>2021-11-28T08:09:01.596Z</time>
      </trkpt>
      <trkpt lat="49.787013" lon="11.972596">
        <ele>541.459583</ele>
        <time>2021-11-28T08:09:09.575Z</time>
      </trkpt>
      <trkpt lat="49.786959" lon="11.972726">
        <ele>541.804320</ele>
        <time>2021-11-28T08:09:17.588Z</time>
      </trkpt>
      <trkpt lat="49.786911" lon="11.972854">
        <ele>542.134434</ele>
        <time>2021-11-28T08:09:26.566Z</time>
      </trkpt>
      <trkpt lat="49.786860" lon="11.972975">
        <ele>542.456692</ele>
        <time>2021-11-28T08:09:34.582Z</time>
      </trkpt>
      <trkpt lat="49.786796" lon="11.973094">
        <ele>542.802091</ele>
        <time>2021-11-28T08:09:43.588Z</time>
      </trkpt>
      <trkpt lat="49.786728" lon="11.973209">
        <ele>543.149863</ele>
        <time>2021-11-28T08:09:51.589Z</time>
      </trkpt>
      <trkpt lat="49.786660" lon="11.973315">
        <ele>543.483109</ele>
        <time>2021-11-28T08:10:00.572Z</time>
      </trkpt>
      <trkpt lat="49.786597" lon="11.973426">
        <ele>543.812707</ele>
        <time>2021-11-28T08:10:08.567Z</time>
      </trkpt>
      <trkpt lat="49.786541" lon="11.973537">
        <ele>544.126866</ele>
        <time>2021-11-28T08:10:16.579Z</time>
      </trkpt>
      <trkpt lat="49.786474" lon="11.973759">
        <ele>544.673379</ele>
        <time>2021-11-28T08:10:42.599Z</time>
      </trkpt>
      <trkpt lat="49.786434" lon="11.973896">
        <ele>545.008699</ele>
        <time>2021-11-28T08:10:51.577Z</time>
      </trkpt>
      <trkpt lat="49.786404" lon="11.974039">
        <ele>545.344024</ele>
        <time>2021-11-28T08:11:00.591Z</time>
      </trkpt>
      <trkpt lat="49.786384" lon="11.974177">
        <ele>545.659443</ele>
        <time>2021-11-28T08:11:08.605Z</time>
      </trkpt>
      <trkpt lat="49.786340" lon="11.974303">
        <ele>545.978911</ele>
        <time>2021-11-28T08:11:16.583Z</time>
      </trkpt>
      <trkpt lat="49.786307" lon="11.974436">
        <ele>546.285864</ele>
        <time>2021-11-28T08:11:24.587Z</time>
      </trkpt>
      <trkpt lat="49.786273" lon="11.974572">
        <ele>546.246987</ele>
        <time>2021-11-28T08:11:32.578Z</time>
      </trkpt>
      <trkpt lat="49.786247" lon="11.974716">
        <ele>546.207127</ele>
        <time>2021-11-28T08:11:40.583Z</time>
      </trkpt>
      <trkpt lat="49.786225" lon="11.974851">
        <ele>546.170011</ele>
        <time>2021-11-28T08:11:47.572Z</time>
      </trkpt>
      <trkpt lat="49.786197" lon="11.974993">
        <ele>546.130431</ele>
        <time>2021-11-28T08:11:55.582Z</time>
      </trkpt>
      <trkpt lat="49.786162" lon="11.975136">
        <ele>546.089664</ele>
        <time>2021-11-28T08:12:03.578Z</time>
      </trkpt>
      <trkpt lat="49.786124" lon="11.975277">
        <ele>546.048934</ele>
        <time>2021-11-28T08:12:12.586Z</time>
      </trkpt>
      <trkpt lat="49.786080" lon="11.975410">
        <ele>546.009096</ele>
        <time>2021-11-28T08:12:20.585Z</time>
      </trkpt>
      <trkpt lat="49.786036" lon="11.975546">
        <ele>545.968545</ele>
        <time>2021-11-28T08:12:29.580Z</time>
      </trkpt>
      <trkpt lat="49.786001" lon="11.975681">
        <ele>545.929764</ele>
        <time>2021-11-28T08:12:38.580Z</time>
      </trkpt>
      <trkpt lat="49.785975" lon="11.975821">
        <ele>545.890930</ele>
        <time>2021-11-28T08:12:47.583Z</time>
      </trkpt>
      <trkpt lat="49.785960" lon="11.975960">
        <ele>545.853362</ele>
        <time>2021-11-28T08:12:55.576Z</time>
      </trkpt>
      <trkpt lat="49.785930" lon="11.976106">
        <ele>545.812518</ele>
        <time>2021-11-28T08:13:04.587Z</time>
      </trkpt>
      <trkpt lat="49.785901" lon="11.976238">
        <ele>545.775349</ele>
        <time>2021-11-28T08:13:12.590Z</time>
      </trkpt>
      <trkpt lat="49.785869" lon="11.976388">
        <ele>545.733236</ele>
        <time>2021-11-28T08:13:20.589Z</time>
      </trkpt>
      <trkpt lat="49.785828" lon="11.976529">
        <ele>545.692013</ele>
        <time>2021-11-28T08:13:28.587Z</time>
      </trkpt>
      <trkpt lat="49.785780" lon="11.976670">
        <ele>545.649521</ele>
        <time>2021-11-28T08:13:36.583Z</time>
      </trkpt>
      <trkpt lat="49.785740" lon="11.976806">
        <ele>545.609682</ele>
        <time>2021-11-28T08:13:44.595Z</time>
      </trkpt>
      <trkpt lat="49.785703" lon="11.976938">
        <ele>545.571320</ele>
        <time>2021-11-28T08:13:52.591Z</time>
      </trkpt>
      <trkpt lat="49.785672" lon="11.977086">
        <ele>545.500220</ele>
        <time>2021-11-28T08:14:00.574Z</time>
      </trkpt>
      <trkpt lat="49.785648" lon="11.977222">
        <ele>545.386090</ele>
        <time>2021-11-28T08:14:08.583Z</time>
      </trkpt>
      <trkpt lat="49.785583" lon="11.977323">
        <ele>545.270651</ele>
        <time>2021-11-28T08:14:18.592Z</time>
      </trkpt>
      <trkpt lat="49.785488" lon="11.977299">
        <ele>545.149968</ele>
        <time>2021-11-28T08:14:28.775Z</time>
      </trkpt>
      <trkpt lat="49.785388" lon="11.977277">
        <ele>545.023332</ele>
        <time>2021-11-28T08:14:48.589Z</time>
      </trkpt>
      <trkpt lat="49.785296" lon="11.977247">
        <ele>544.905456</ele>
        <time>2021-11-28T08:14:57.580Z</time>
      </trkpt>
      <trkpt lat="49.785206" lon="11.977253">
        <ele>544.792512</ele>
        <time>2021-11-28T08:15:05.570Z</time>
      </trkpt>
      <trkpt lat="49.785115" lon="11.977265">
        <ele>544.678005</ele>
        <time>2021-11-28T08:15:13.580Z</time>
      </trkpt>
      <trkpt lat="49.785019" lon="11.977249">
        <ele>544.556948</ele>
        <time>2021-11-28T08:15:21.589Z</time>
      </trkpt>
      <trkpt lat="49.784926" lon="11.977241">
        <ele>544.440167</ele>
        <time>2021-11-28T08:15:30.588Z</time>
      </trkpt>
      <trkpt lat="49.784842" lon="11.977188">
        <ele>544.326446</ele>
        <time>2021-11-28T08:15:36.583Z</time>
      </trkpt>
      <trkpt lat="49.784755" lon="11.977115">
        <ele>544.202389</ele>
        <time>2021-11-28T08:15:44.594Z</time>
      </trkpt>
      <trkpt lat="49.784681" lon="11.977015">
        <ele>544.079258</ele>
        <time>2021-11-28T08:15:58.581Z</time>
      </trkpt>
      <trkpt lat="49.784620" lon="11.976912">
        <ele>543.966114</ele>
        <time>2021-11-28T08:16:25.595Z</time>
      </trkpt>
      <trkpt lat="49.784558" lon="11.976805">
        <ele>543.849730</ele>
        <time>2021-11-28T08:16:40.586Z</time>
      </trkpt>
      <trkpt lat="49.784484" lon="11.976716">
        <ele>543.732262</ele>
        <time>2021-11-28T08:16:50.583Z</time>
      </trkpt>
      <trkpt lat="49.784442" lon="11.976562">
        <ele>543.596931</ele>
        <time>2021-11-28T08:17:36.578Z</time>
      </trkpt>
      <trkpt lat="49.784450" lon="11.976410">
        <ele>543.473476</ele>
        <time>2021-11-28T08:17:46.608Z</time>
      </trkpt>
      <trkpt lat="49.784417" lon="11.976198">
        <ele>543.296941</ele>
        <time>2021-11-28T08:19:56.603Z</time>
      </trkpt>
      <trkpt lat="49.784387" lon="11.976053">
        <ele>543.506239</ele>
        <time>2021-11-28T08:20:04.587Z</time>
      </trkpt>
      <trkpt lat="49.784373" lon="11.975905">
        <ele>543.733462</ele>
        <time>2021-11-28T08:20:14.595Z</time>
      </trkpt>
      <trkpt lat="49.784358" lon="11.975764">
        <ele>543.950539</ele>
        <time>2021-11-28T08:20:22.592Z</time>
      </trkpt>
      <trkpt lat="49.784352" lon="11.975611">
        <ele>544.183386</ele>
        <time>2021-11-28T08:20:30.593Z</time>
      </trkpt>
      <trkpt lat="49.784355" lon="11.975457">
        <ele>544.417429</ele>
        <time>2021-11-28T08:20:39.589Z</time>
      </trkpt>
      <trkpt lat="49.784368" lon="11.975304">
        <ele>544.651851</ele>
        <time>2021-11-28T08:20:48.588Z</time>
      </trkpt>
      <trkpt lat="49.784356" lon="11.975158">
        <ele>544.875426</ele>
        <time>2021-11-28T08:20:56.577Z</time>
      </trkpt>
      <trkpt lat="49.784340" lon="11.975015">
        <ele>545.095891</ele>
        <time>2021-11-28T08:21:05.576Z</time>
      </trkpt>
      <trkpt lat="49.784329" lon="11.974871">
        <ele>545.316163</ele>
        <time>2021-11-28T08:21:13.585Z</time>
      </trkpt>
      <trkpt lat="49.784317" lon="11.974733">
        <ele>545.527688</ele>
        <time>2021-11-28T08:21:22.591Z</time>
      </trkpt>
      <trkpt lat="49.784288" lon="11.974596">
        <ele>545.746700</ele>
        <time>2021-11-28T08:21:31.598Z</time>
      </trkpt>
      <trkpt lat="49.784262" lon="11.974448">
        <ele>545.979697</ele>
        <time>2021-11-28T08:21:41.577Z</time>
      </trkpt>
      <trkpt lat="49.784229" lon="11.974318">
        <ele>546.191891</ele>
        <time>2021-11-28T08:21:50.576Z</time>
      </trkpt>
      <trkpt lat="49.784189" lon="11.974191">
        <ele>546.406544</ele>
        <time>2021-11-28T08:21:58.573Z</time>
      </trkpt>
      <trkpt lat="49.784128" lon="11.974074">
        <ele>546.634985</ele>
        <time>2021-11-28T08:22:09.581Z</time>
      </trkpt>
      <trkpt lat="49.784042" lon="11.974144">
        <ele>546.863560</ele>
        <time>2021-11-28T08:22:24.582Z</time>
      </trkpt>
      <trkpt lat="49.783986" lon="11.974257">
        <ele>547.079950</ele>
        <time>2021-11-28T08:22:37.575Z</time>
      </trkpt>
      <trkpt lat="49.783936" lon="11.974457">
        <ele>547.405746</ele>
        <time>2021-11-28T08:23:01.590Z</time>
      </trkpt>
      <trkpt lat="49.783896" lon="11.974594">
        <ele>547.648414</ele>
        <time>2021-11-28T08:23:10.595Z</time>
      </trkpt>
      <trkpt lat="49.783852" lon="11.974726">
        <ele>547.902526</ele>
        <time>2021-11-28T08:23:18.584Z</time>
      </trkpt>
      <trkpt lat="49.783810" lon="11.974863">
        <ele>548.161951</ele>
        <time>2021-11-28T08:23:28.592Z</time>
      </trkpt>
      <trkpt lat="49.783773" lon="11.974995">
        <ele>548.408109</ele>
        <time>2021-11-28T08:23:37.571Z</time>
      </trkpt>
      <trkpt lat="49.783733" lon="11.975125">
        <ele>548.654445</ele>
        <time>2021-11-28T08:23:44.598Z</time>
      </trkpt>
      <trkpt lat="49.783689" lon="11.975271">
        <ele>548.930057</ele>
        <time>2021-11-28T08:23:51.593Z</time>
      </trkpt>
      <trkpt lat="49.783650" lon="11.975411">
        <ele>549.190878</ele>
        <time>2021-11-28T08:23:59.575Z</time>
      </trkpt>
      <trkpt lat="49.783602" lon="11.975534">
        <ele>549.436725</ele>
        <time>2021-11-28T08:24:06.581Z</time>
      </trkpt>
      <trkpt lat="49.783550" lon="11.975658">
        <ele>549.689651</ele>
        <time>2021-11-28T08:24:13.595Z</time>
      </trkpt>
      <trkpt lat="49.783510" lon="11.975804">
        <ele>549.960951</ele>
        <time>2021-11-28T08:24:21.593Z</time>
      </trkpt>
      <trkpt lat="49.783466" lon="11.975945">
        <ele>550.228838</ele>
        <time>2021-11-28T08:24:29.605Z</time>
      </trkpt>
      <trkpt lat="49.783421" lon="11.976070">
        <ele>550.473653</ele>
        <time>2021-11-28T08:24:36.594Z</time>
      </trkpt>
      <trkpt lat="49.783373" lon="11.976204">
        <ele>550.735786</ele>
        <time>2021-11-28T08:24:44.601Z</time>
      </trkpt>
      <trkpt lat="49.783322" lon="11.976322">
        <ele>550.978685</ele>
        <time>2021-11-28T08:24:52.582Z</time>
      </trkpt>
      <trkpt lat="49.783278" lon="11.976447">
        <ele>551.222222</ele>
        <time>2021-11-28T08:24:59.576Z</time>
      </trkpt>
      <trkpt lat="49.783237" lon="11.976591">
        <ele>551.491435</ele>
        <time>2021-11-28T08:25:07.595Z</time>
      </trkpt>
      <trkpt lat="49.783207" lon="11.976741">
        <ele>551.760054</ele>
        <time>2021-11-28T08:25:15.602Z</time>
      </trkpt>
      <trkpt lat="49.783153" lon="11.976870">
        <ele>552.023040</ele>
        <time>2021-11-28T08:25:23.585Z</time>
      </trkpt>
      <trkpt lat="49.783108" lon="11.977006">
        <ele>552.284452</ele>
        <time>2021-11-28T08:25:31.600Z</time>
      </trkpt>
      <trkpt lat="49.783083" lon="11.977142">
        <ele>552.266021</ele>
        <time>2021-11-28T08:25:39.619Z</time>
      </trkpt>
      <trkpt lat="49.783042" lon="11.977278">
        <ele>552.244487</ele>
        <time>2021-11-28T08:25:48.604Z</time>
      </trkpt>
      <trkpt lat="49.783009" lon="11.977408">
        <ele>552.224447</ele>
        <time>2021-11-28T08:25:55.579Z</time>
      </trkpt>
      <trkpt lat="49.782970" lon="11.977554">
        <ele>552.201779</ele>
        <time>2021-11-28T08:26:03.595Z</time>
      </trkpt>
      <trkpt lat="49.782929" lon="11.977691">
        <ele>552.180115</ele>
        <time>2021-11-28T08:26:10.598Z</time>
      </trkpt>
      <trkpt lat="49.782871" lon="11.977797">
        <ele>552.160181</ele>
        <time>2021-11-28T08:26:18.590Z</time>
      </trkpt>
      <trkpt lat="49.782800" lon="11.977896">
        <ele>552.138953</ele>
        <time>2021-11-28T08:26:28.579Z</time>
      </trkpt>
      <trkpt lat="49.782725" lon="11.977987">
        <ele>552.117783</ele>
        <time>2021-11-28T08:26:36.578Z</time>
      </trkpt>
      <trkpt lat="49.782649" lon="11.978073">
        <ele>552.096869</ele>
        <time>2021-11-28T08:26:45.589Z</time>
      </trkpt>
      <trkpt lat="49.782569" lon="11.978159">
        <ele>552.075231</ele>
        <time>2021-11-28T08:26:53.586Z</time>
      </trkpt>
      <trkpt lat="49.782487" lon="11.978244">
        <ele>552.053306</ele>
        <time>2021-11-28T08:27:02.594Z</time>
      </trkpt>
      <trkpt lat="49.782417" lon="11.978342">
        <ele>552.032339</ele>
        <time>2021-11-28T08:27:09.586Z</time>
      </trkpt>
      <trkpt lat="49.782339" lon="11.978426">
        <ele>552.011230</ele>
        <time>2021-11-28T08:27:16.589Z</time>
      </trkpt>
      <trkpt lat="49.782266" lon="11.978522">
        <ele>551.989951</ele>
        <time>2021-11-28T08:27:23.589Z</time>
      </trkpt>
      <trkpt lat="49.782200" lon="11.978635">
        <ele>551.968090</ele>
        <time>2021-11-28T08:27:30.596Z</time>
      </trkpt>
      <trkpt lat="49.782131" lon="11.978750">
        <ele>551.945567</ele>
        <time>2021-11-28T08:27:37.584Z</time>
      </trkpt>
      <trkpt lat="49.782062" lon="11.978853">
        <ele>551.924273</ele>
        <time>2021-11-28T08:27:44.592Z</time>
      </trkpt>
      <trkpt lat="49.782004" lon="11.978967">
        <ele>551.903450</ele>
        <time>2021-11-28T08:27:51.582Z</time>
      </trkpt>
      <trkpt lat="49.781947" lon="11.979089">
        <ele>551.840002</ele>
        <time>2021-11-28T08:27:59.593Z</time>
      </trkpt>
      <trkpt lat="49.781909" lon="11.979219">
        <ele>551.635986</ele>
        <time>2021-11-28T08:28:07.582Z</time>
      </trkpt>
      <trkpt lat="49.781857" lon="11.979335">
        <ele>551.434094</ele>
        <time>2021-11-28T08:28:15.572Z</time>
      </trkpt>
      <trkpt lat="49.781815" lon="11.979458">
        <ele>551.235169</ele>
        <time>2021-11-28T08:28:22.586Z</time>
      </trkpt>
      <trkpt lat="49.781773" lon="11.979601">
        <ele>551.010567</ele>
        <time>2021-11-28T08:28:30.591Z</time>
      </trkpt>
      <trkpt lat="49.781733" lon="11.979727">
        <ele>550.809833</ele>
        <time>2021-11-28T08:28:37.577Z</time>
      </trkpt>
      <trkpt lat="49.781689" lon="11.979858">
        <ele>550.598720</ele>
        <time>2021-11-28T08:28:46.580Z</time>
      </trkpt>
      <trkpt lat="49.781656" lon="11.980004">
        <ele>550.377567</ele>
        <time>2021-11-28T08:28:54.579Z</time>
      </trkpt>
      <trkpt lat="49.781627" lon="11.980137">
        <ele>550.176870</ele>
        <time>2021-11-28T08:29:02.577Z</time>
      </trkpt>
      <trkpt lat="49.781585" lon="11.980270">
        <ele>549.965199</ele>
        <time>2021-11-28T08:29:09.575Z</time>
      </trkpt>
      <trkpt lat="49.781540" lon="11.980396">
        <ele>549.759339</ele>
        <time>2021-11-28T08:29:17.580Z</time>
      </trkpt>
      <trkpt lat="49.781519" lon="11.980538">
        <ele>549.551066</ele>
        <time>2021-11-28T08:29:26.580Z</time>
      </trkpt>
      <trkpt lat="49.781483" lon="11.980667">
        <ele>549.350148</ele>
        <time>2021-11-28T08:29:35.593Z</time>
      </trkpt>
      <trkpt lat="49.781434" lon="11.980802">
        <ele>549.128736</ele>
        <time>2021-11-28T08:29:43.606Z</time>
      </trkpt>
      <trkpt lat="49.781384" lon="11.980939">
        <ele>548.903746</ele>
        <time>2021-11-28T08:29:51.572Z</time>
      </trkpt>
      <trkpt lat="49.781331" lon="11.981068">
        <ele>548.685147</ele>
        <time>2021-11-28T08:29:59.571Z</time>
      </trkpt>
      <trkpt lat="49.781272" lon="11.981180">
        <ele>548.478492</ele>
        <time>2021-11-28T08:30:15.579Z</time>
      </trkpt>
      <trkpt lat="49.781219" lon="11.981313">
        <ele>548.255046</ele>
        <time>2021-11-28T08:30:24.586Z</time>
      </trkpt>
      <trkpt lat="49.781154" lon="11.981426">
        <ele>548.038682</ele>
        <time>2021-11-28T08:30:32.580Z</time>
      </trkpt>
      <trkpt lat="49.781090" lon="11.981542">
        <ele>547.830888</ele>
        <time>2021-11-28T08:30:41.589Z</time>
      </trkpt>
      <trkpt lat="49.781037" lon="11.981673">
        <ele>547.637258</ele>
        <time>2021-11-28T08:30:49.587Z</time>
      </trkpt>
      <trkpt lat="49.780974" lon="11.981795">
        <ele>547.441593</ele>
        <time>2021-11-28T08:30:57.574Z</time>
      </trkpt>
      <trkpt lat="49.780922" lon="11.981911">
        <ele>547.264718</ele>
        <time>2021-11-28T08:31:04.580Z</time>
      </trkpt>
      <trkpt lat="49.780859" lon="11.982028">
        <ele>547.073903</ele>
        <time>2021-11-28T08:31:12.585Z</time>
      </trkpt>
      <trkpt lat="49.780795" lon="11.982152">
        <ele>546.875070</ele>
        <time>2021-11-28T08:31:20.584Z</time>
      </trkpt>
      <trkpt lat="49.780736" lon="11.982268">
        <ele>546.690114</ele>
        <time>2021-11-28T08:31:28.588Z</time>
      </trkpt>
      <trkpt lat="49.780686" lon="11.982385">
        <ele>546.514379</ele>
        <time>2021-11-28T08:31:35.605Z</time>
      </trkpt>
      <trkpt lat="49.780637" lon="11.982509">
        <ele>546.332288</ele>
        <time>2021-11-28T08:31:43.589Z</time>
      </trkpt>
      <trkpt lat="49.780584" lon="11.982641">
        <ele>546.137594</ele>
        <time>2021-11-28T08:31:51.574Z</time>
      </trkpt>
      <trkpt lat="49.780521" lon="11.982762">
        <ele>545.942905</ele>
        <time>2021-11-28T08:31:59.580Z</time>
      </trkpt>
      <trkpt lat="49.780461" lon="11.982874">
        <ele>545.760625</ele>
        <time>2021-11-28T08:32:07.582Z</time>
      </trkpt>
      <trkpt lat="49.780392" lon="11.982989">
        <ele>545.563997</ele>
        <time>2021-11-28T08:32:15.580Z</time>
      </trkpt>
      <trkpt lat="49.780306" lon="11.983075">
        <ele>545.365420</ele>
        <time>2021-11-28T08:32:24.579Z</time>
      </trkpt>
      <trkpt lat="49.780219" lon="11.983119">
        <ele>545.187889</ele>
        <time>2021-11-28T08:32:34.584Z</time>
      </trkpt>
      <trkpt lat="49.780128" lon="11.983130">
        <ele>545.010832</ele>
        <time>2021-11-28T08:32:41.582Z</time>
      </trkpt>
      <trkpt lat="49.780035" lon="11.983115">
        <ele>544.829458</ele>
        <time>2021-11-28T08:32:49.572Z</time>
      </trkpt>
      <trkpt lat="49.779942" lon="11.983058">
        <ele>544.635444</ele>
        <time>2021-11-28T08:32:56.584Z</time>
      </trkpt>
      <trkpt lat="49.779860" lon="11.982972">
        <ele>544.443339</ele>
        <time>2021-11-28T08:33:05.583Z</time>
      </trkpt>
      <trkpt lat="49.779775" lon="11.982884">
        <ele>544.151800</ele>
        <time>2021-11-28T08:33:14.571Z</time>
      </trkpt>
      <trkpt lat="49.779729" lon="11.982763">
        <ele>543.879527</ele>
        <time>2021-11-28T08:33:22.581Z</time>
      </trkpt>
      <trkpt lat="49.779695" lon="11.982622">
        <ele>543.587675</ele>
        <time>2021-11-28T08:33:32.578Z</time>
      </trkpt>
      <trkpt lat="49.779673" lon="11.982478">
        <ele>543.300737</ele>
        <time>2021-11-28T08:33:44.584Z</time>
      </trkpt>
      <trkpt lat="49.779669" lon="11.982339">
        <ele>543.030937</ele>
        <time>2021-11-28T08:33:54.565Z</time>
      </trkpt>
      <trkpt lat="49.779659" lon="11.982192">
        <ele>542.744313</ele>
        <time>2021-11-28T08:34:02.574Z</time>
      </trkpt>
      <trkpt lat="49.779646" lon="11.982044">
        <ele>542.454685</ele>
        <time>2021-11-28T08:34:10.578Z</time>
      </trkpt>
      <trkpt lat="49.779642" lon="11.981901">
        <ele>542.177136</ele>
        <time>2021-11-28T08:34:18.572Z</time>
      </trkpt>
      <trkpt lat="49.779639" lon="11.981747">
        <ele>541.878380</ele>
        <time>2021-11-28T08:34:27.579Z</time>
      </trkpt>
      <trkpt lat="49.779634" lon="11.981597">
        <ele>541.587130</ele>
        <time>2021-11-28T08:34:35.583Z</time>
      </trkpt>
      <trkpt lat="49.779636" lon="11.981447">
        <ele>541.296205</ele>
        <time>2021-11-28T08:34:43.576Z</time>
      </trkpt>
      <trkpt lat="49.779630" lon="11.981306">
        <ele>541.022200</ele>
        <time>2021-11-28T08:34:51.581Z</time>
      </trkpt>
      <trkpt lat="49.779632" lon="11.981155">
        <ele>540.729336</ele>
        <time>2021-11-28T08:34:58.564Z</time>
      </trkpt>
      <trkpt lat="49.779623" lon="11.981008">
        <ele>540.443012</ele>
        <time>2021-11-28T08:35:04.583Z</time>
      </trkpt>
      <trkpt lat="49.779613" lon="11.980870">
        <ele>540.173738</ele>
        <time>2021-11-28T08:35:11.575Z</time>
      </trkpt>
      <trkpt lat="49.779589" lon="11.980726">
        <ele>539.885358</ele>
        <time>2021-11-28T08:35:19.579Z</time>
      </trkpt>
      <trkpt lat="49.779567" lon="11.980576">
        <ele>539.587086</ele>
        <time>2021-11-28T08:35:30.564Z</time>
      </trkpt>
      <trkpt lat="49.779527" lon="11.980434">
        <ele>539.286675</ele>
        <time>2021-11-28T08:35:38.567Z</time>
      </trkpt>
      <trkpt lat="49.779499" lon="11.980302">
        <ele>539.017258</ele>
        <time>2021-11-28T08:35:45.572Z</time>
      </trkpt>
      <trkpt lat="49.779444" lon="11.980059">
        <ele>539.118420</ele>
        <time>2021-11-28T08:36:07.582Z</time>
      </trkpt>
      <trkpt lat="49.779391" lon="11.979925">
        <ele>539.182679</ele>
        <time>2021-11-28T08:36:17.579Z</time>
      </trkpt>
      <trkpt lat="49.779371" lon="11.979784">
        <ele>539.241713</ele>
        <time>2021-11-28T08:36:26.587Z</time>
      </trkpt>
      <trkpt lat="49.779324" lon="11.979648">
        <ele>539.304791</ele>
        <time>2021-11-28T08:36:34.590Z</time>
      </trkpt>
      <trkpt lat="49.779253" lon="11.979539">
        <ele>539.368103</ele>
        <time>2021-11-28T08:36:42.574Z</time>
      </trkpt>
      <trkpt lat="49.779180" lon="11.979427">
        <ele>539.433179</ele>
        <time>2021-11-28T08:36:51.575Z</time>
      </trkpt>
      <trkpt lat="49.779102" lon="11.979328">
        <ele>539.497045</ele>
        <time>2021-11-28T08:36:59.575Z</time>
      </trkpt>
      <trkpt lat="49.779028" lon="11.979227">
        <ele>539.559511</ele>
        <time>2021-11-28T08:37:06.579Z</time>
      </trkpt>
      <trkpt lat="49.778960" lon="11.979125">
        <ele>539.619463</ele>
        <time>2021-11-28T08:37:14.588Z</time>
      </trkpt>
      <trkpt lat="49.778908" lon="11.979001">
        <ele>539.679925</ele>
        <time>2021-11-28T08:37:22.586Z</time>
      </trkpt>
      <trkpt lat="49.778853" lon="11.978892">
        <ele>539.736494</ele>
        <time>2021-11-28T08:37:30.579Z</time>
      </trkpt>
      <trkpt lat="49.778788" lon="11.978774">
        <ele>539.799920</ele>
        <time>2021-11-28T08:37:38.568Z</time>
      </trkpt>
      <trkpt lat="49.778751" lon="11.978643">
        <ele>539.858390</ele>
        <time>2021-11-28T08:37:45.587Z</time>
      </trkpt>
      <trkpt lat="49.778702" lon="11.978503">
        <ele>539.923510</ele>
        <time>2021-11-28T08:37:54.585Z</time>
      </trkpt>
      <trkpt lat="49.778655" lon="11.978374">
        <ele>539.984080</ele>
        <time>2021-11-28T08:38:03.585Z</time>
      </trkpt>
      <trkpt lat="49.778623" lon="11.978236">
        <ele>540.044042</ele>
        <time>2021-11-28T08:38:12.582Z</time>
      </trkpt>
      <trkpt lat="49.778589" lon="11.978098">
        <ele>540.104443</ele>
        <time>2021-11-28T08:38:20.570Z</time>
      </trkpt>
      <trkpt lat="49.778557" lon="11.977956">
        <ele>540.202308</ele>
        <time>2021-11-28T08:38:28.583Z</time>
      </trkpt>
      <trkpt lat="49.778523" lon="11.977817">
        <ele>540.432346</ele>
        <time>2021-11-28T08:38:36.584Z</time>
      </trkpt>
      <trkpt lat="49.778491" lon="11.977677">
        <ele>540.662187</ele>
        <time>2021-11-28T08:38:44.583Z</time>
      </trkpt>
      <trkpt lat="49.778455" lon="11.977544">
        <ele>540.885375</ele>
        <time>2021-11-28T08:38:51.569Z</time>
      </trkpt>
      <trkpt lat="49.778430" lon="11.977401">
        <ele>541.114654</ele>
        <time>2021-11-28T08:38:59.580Z</time>
      </trkpt>
      <trkpt lat="49.778405" lon="11.977261">
        <ele>541.339455</ele>
        <time>2021-11-28T08:39:07.570Z</time>
      </trkpt>
      <trkpt lat="49.778373" lon="11.977118">
        <ele>541.573679</ele>
        <time>2021-11-28T08:39:15.577Z</time>
      </trkpt>
      <trkpt lat="49.778344" lon="11.976973">
        <ele>541.808604</ele>
        <time>2021-11-28T08:39:25.579Z</time>
      </trkpt>
      <trkpt lat="49.778310" lon="11.976836">
        <ele>542.035750</ele>
        <time>2021-11-28T08:39:31.572Z</time>
      </trkpt>
      <trkpt lat="49.778291" lon="11.976691">
        <ele>542.264732</ele>
        <time>2021-11-28T08:39:38.585Z</time>
      </trkpt>
      <trkpt lat="49.778258" lon="11.976555">
        <ele>542.489580</ele>
        <time>2021-11-28T08:39:45.574Z</time>
      </trkpt>
      <trkpt lat="49.778233" lon="11.976415">
        <ele>542.714382</ele>
        <time>2021-11-28T08:39:52.570Z</time>
      </trkpt>
      <trkpt lat="49.778213" lon="11.976271">
        <ele>542.942339</ele>
        <time>2021-11-28T08:39:59.572Z</time>
      </trkpt>
      <trkpt lat="49.778179" lon="11.976140">
        <ele>543.160844</ele>
        <time>2021-11-28T08:40:07.581Z</time>
      </trkpt>
      <trkpt lat="49.778151" lon="11.975990">
        <ele>543.402495</ele>
        <time>2021-11-28T08:40:16.590Z</time>
      </trkpt>
      <trkpt lat="49.778121" lon="11.975853">
        <ele>543.626382</ele>
        <time>2021-11-28T08:40:23.572Z</time>
      </trkpt>
      <trkpt lat="49.778090" lon="11.975712">
        <ele>543.856901</ele>
        <time>2021-11-28T08:40:31.574Z</time>
      </trkpt>
      <trkpt lat="49.778059" lon="11.975575">
        <ele>544.081569</ele>
        <time>2021-11-28T08:40:38.588Z</time>
      </trkpt>
      <trkpt lat="49.778033" lon="11.975429">
        <ele>544.315961</ele>
        <time>2021-11-28T08:40:45.572Z</time>
      </trkpt>
      <trkpt lat="49.778005" lon="11.975291">
        <ele>544.642091</ele>
        <time>2021-11-28T08:40:52.585Z</time>
      </trkpt>
      <trkpt lat="49.777980" lon="11.975145">
        <ele>545.189600</ele>
        <time>2021-11-28T08:41:00.573Z</time>
      </trkpt>
      <trkpt lat="49.777944" lon="11.975014">
        <ele>545.705657</ele>
        <time>2021-11-28T08:41:08.584Z</time>
      </trkpt>
      <trkpt lat="49.777892" lon="11.974893">
        <ele>546.232506</ele>
        <time>2021-11-28T08:41:15.571Z</time>
      </trkpt>
      <trkpt lat="49.777813" lon="11.974796">
        <ele>546.798434</ele>
        <time>2021-11-28T08:41:23.573Z</time>
      </trkpt>
      <trkpt lat="49.777729" lon="11.974739">
        <ele>547.313231</ele>
        <time>2021-11-28T08:41:30.596Z</time>
      </trkpt>
      <trkpt lat="49.777638" lon="11.974680">
        <ele>547.867004</ele>
        <time>2021-11-28T08:41:38.600Z</time>
      </trkpt>
      <trkpt lat="49.777539" lon="11.974666">
        <ele>548.425031</ele>
        <time>2021-11-28T08:41:46.589Z</time>
      </trkpt>
      <trkpt lat="49.777448" lon="11.974702">
        <ele>548.952245</ele>
        <time>2021-11-28T08:41:54.588Z</time>
      </trkpt>
      <trkpt lat="49.777365" lon="11.974761">
        <ele>549.464889</ele>
        <time>2021-11-28T08:42:02.590Z</time>
      </trkpt>
      <trkpt lat="49.777284" lon="11.974847">
        <ele>550.016169</ele>
        <time>2021-11-28T08:42:11.587Z</time>
      </trkpt>
      <trkpt lat="49.777206" lon="11.974943">
        <ele>550.575449</ele>
        <time>2021-11-28T08:42:20.580Z</time>
      </trkpt>
      <trkpt lat="49.777146" lon="11.975059">
        <ele>551.114186</ele>
        <time>2021-11-28T08:42:28.588Z</time>
      </trkpt>
      <trkpt lat="49.777052" lon="11.975075">
        <ele>551.645012</ele>
        <time>2021-11-28T08:43:04.593Z</time>
      </trkpt>
      <trkpt lat="49.777035" lon="11.975214">
        <ele>552.157824</ele>
        <time>2021-11-28T08:43:24.581Z</time>
      </trkpt>
      <trkpt lat="49.776998" lon="11.975354">
        <ele>552.706160</ele>
        <time>2021-11-28T08:43:32.593Z</time>
      </trkpt>
      <trkpt lat="49.776951" lon="11.975485">
        <ele>553.249384</ele>
        <time>2021-11-28T08:43:40.598Z</time>
      </trkpt>
      <trkpt lat="49.776914" lon="11.975622">
        <ele>553.787672</ele>
        <time>2021-11-28T08:43:47.591Z</time>
      </trkpt>
      <trkpt lat="49.776872" lon="11.975753">
        <ele>554.317834</ele>
        <time>2021-11-28T08:43:54.587Z</time>
      </trkpt>
      <trkpt lat="49.776831" lon="11.975877">
        <ele>554.568640</ele>
        <time>2021-11-28T08:44:01.591Z</time>
      </trkpt>
      <trkpt lat="49.776790" lon="11.976006">
        <ele>554.585894</ele>
        <time>2021-11-28T08:44:08.596Z</time>
      </trkpt>
      <trkpt lat="49.776747" lon="11.976139">
        <ele>554.603743</ele>
        <time>2021-11-28T08:44:16.584Z</time>
      </trkpt>
      <trkpt lat="49.776703" lon="11.976262">
        <ele>554.620617</ele>
        <time>2021-11-28T08:44:24.595Z</time>
      </trkpt>
      <trkpt lat="49.776664" lon="11.976401">
        <ele>554.638804</ele>
        <time>2021-11-28T08:44:32.591Z</time>
      </trkpt>
      <trkpt lat="49.776630" lon="11.976531">
        <ele>554.655636</ele>
        <time>2021-11-28T08:44:39.577Z</time>
      </trkpt>
      <trkpt lat="49.776604" lon="11.976665">
        <ele>554.672426</ele>
        <time>2021-11-28T08:44:46.571Z</time>
      </trkpt>
      <trkpt lat="49.776583" lon="11.976806">
        <ele>554.689791</ele>
        <time>2021-11-28T08:44:53.585Z</time>
      </trkpt>
      <trkpt lat="49.776562" lon="11.976953">
        <ele>554.707858</ele>
        <time>2021-11-28T08:45:00.585Z</time>
      </trkpt>
      <trkpt lat="49.776544" lon="11.977093">
        <ele>554.724989</ele>
        <time>2021-11-28T08:45:07.598Z</time>
      </trkpt>
      <trkpt lat="49.776518" lon="11.977241">
        <ele>554.743395</ele>
        <time>2021-11-28T08:45:15.597Z</time>
      </trkpt>
      <trkpt lat="49.776492" lon="11.977387">
        <ele>554.761570</ele>
        <time>2021-11-28T08:45:23.581Z</time>
      </trkpt>
      <trkpt lat="49.776480" lon="11.977526">
        <ele>554.778399</ele>
        <time>2021-11-28T08:45:30.599Z</time>
      </trkpt>
      <trkpt lat="49.776470" lon="11.977679">
        <ele>554.796853</ele>
        <time>2021-11-28T08:45:37.576Z</time>
      </trkpt>
      <trkpt lat="49.776459" lon="11.977835">
        <ele>554.815685</ele>
        <time>2021-11-28T08:45:45.583Z</time>
      </trkpt>
      <trkpt lat="49.776443" lon="11.977975">
        <ele>554.832747</ele>
        <time>2021-11-28T08:45:52.590Z</time>
      </trkpt>
      <trkpt lat="49.776418" lon="11.978119">
        <ele>554.850641</ele>
        <time>2021-11-28T08:45:59.589Z</time>
      </trkpt>
      <trkpt lat="49.776391" lon="11.978256">
        <ele>554.867831</ele>
        <time>2021-11-28T08:46:07.585Z</time>
      </trkpt>
      <trkpt lat="49.776370" lon="11.978408">
        <ele>554.886484</ele>
        <time>2021-11-28T08:46:16.596Z</time>
      </trkpt>
      <trkpt lat="49.776302" lon="11.978503">
        <ele>554.361003</ele>
        <time>2021-11-28T08:46:27.587Z</time>
      </trkpt>
      <trkpt lat="49.776259" lon="11.978372">
        <ele>553.352222</ele>
        <time>2021-11-28T08:46:41.588Z</time>
      </trkpt>
      <trkpt lat="49.776236" lon="11.978229">
        <ele>552.340578</ele>
        <time>2021-11-28T08:46:52.616Z</time>
      </trkpt>
      <trkpt lat="49.776210" lon="11.978094">
        <ele>551.373504</ele>
        <time>2021-11-28T08:47:01.581Z</time>
      </trkpt>
      <trkpt lat="49.776195" lon="11.977939">
        <ele>550.297591</ele>
        <time>2021-11-28T08:47:13.571Z</time>
      </trkpt>
      <trkpt lat="49.776179" lon="11.977796">
        <ele>549.301310</ele>
        <time>2021-11-28T08:47:21.573Z</time>
      </trkpt>
      <trkpt lat="49.776159" lon="11.977638">
        <ele>548.196042</ele>
        <time>2021-11-28T08:47:32.582Z</time>
      </trkpt>
      <trkpt lat="49.776143" lon="11.977483">
        <ele>547.118500</ele>
        <time>2021-11-28T08:47:42.582Z</time>
      </trkpt>
      <trkpt lat="49.776117" lon="11.977341">
        <ele>546.105283</ele>
        <time>2021-11-28T08:47:50.584Z</time>
      </trkpt>
      <trkpt lat="49.776066" lon="11.977213">
        <ele>545.072807</ele>
        <time>2021-11-28T08:47:59.584Z</time>
      </trkpt>
      <trkpt lat="49.776031" lon="11.977071">
        <ele>544.029423</ele>
        <time>2021-11-28T08:48:07.571Z</time>
      </trkpt>
      <trkpt lat="49.775993" lon="11.976944">
        <ele>543.068564</ele>
        <time>2021-11-28T08:48:16.590Z</time>
      </trkpt>
      <trkpt lat="49.775966" lon="11.976811">
        <ele>542.111501</ele>
        <time>2021-11-28T08:48:25.575Z</time>
      </trkpt>
      <trkpt lat="49.775935" lon="11.976672">
        <ele>541.101999</ele>
        <time>2021-11-28T08:48:36.599Z</time>
      </trkpt>
      <trkpt lat="49.775890" lon="11.976550">
        <ele>540.137511</ele>
        <time>2021-11-28T08:48:45.578Z</time>
      </trkpt>
      <trkpt lat="49.775861" lon="11.976409">
        <ele>539.121673</ele>
        <time>2021-11-28T08:48:54.572Z</time>
      </trkpt>
      <trkpt lat="49.775852" lon="11.976267">
        <ele>538.142191</ele>
        <time>2021-11-28T08:49:03.569Z</time>
      </trkpt>
      <trkpt lat="49.775838" lon="11.976118">
        <ele>537.108570</ele>
        <time>2021-11-28T08:49:12.595Z</time>
      </trkpt>
      <trkpt lat="49.775839" lon="11.975974">
        <ele>536.119985</ele>
        <time>2021-11-28T08:49:20.580Z</time>
      </trkpt>
      <trkpt lat="49.775819" lon="11.975835">
        <ele>535.234910</ele>
        <time>2021-11-28T08:49:30.577Z</time>
      </trkpt>
      <trkpt lat="49.775834" lon="11.975693">
        <ele>534.391803</ele>
        <time>2021-11-28T08:49:39.579Z</time>
      </trkpt>
      <trkpt lat="49.775844" lon="11.975545">
        <ele>533.519863</ele>
        <time>2021-11-28T08:49:47.578Z</time>
      </trkpt>
      <trkpt lat="49.775872" lon="11.975407">
        <ele>532.672281</ele>
        <time>2021-11-28T08:49:55.574Z</time>
      </trkpt>
      <trkpt lat="49.775902" lon="11.975261">
        <ele>531.774533</ele>
        <time>2021-11-28T08:50:04.602Z</time>
      </trkpt>
      <trkpt lat="49.775940" lon="11.975129">
        <ele>530.927709</ele>
        <time>2021-11-28T08:50:13.585Z</time>
      </trkpt>
      <trkpt lat="49.775986" lon="11.975007">
        <ele>530.099924</ele>
        <time>2021-11-28T08:50:21.569Z</time>
      </trkpt>
      <trkpt lat="49.776002" lon="11.974868">
        <ele>529.272619</ele>
        <time>2021-11-28T08:50:28.580Z</time>
      </trkpt>
      <trkpt lat="49.776027" lon="11.974728">
        <ele>528.421507</ele>
        <time>2021-11-28T08:50:36.579Z</time>
      </trkpt>
      <trkpt lat="49.776061" lon="11.974590">
        <ele>527.556049</ele>
        <time>2021-11-28T08:50:45.577Z</time>
      </trkpt>
      <trkpt lat="49.776100" lon="11.974459">
        <ele>526.710817</ele>
        <time>2021-11-28T08:50:54.587Z</time>
      </trkpt>
      <trkpt lat="49.776138" lon="11.974326">
        <ele>525.858641</ele>
        <time>2021-11-28T08:51:05.585Z</time>
      </trkpt>
      <trkpt lat="49.776168" lon="11.974181">
        <ele>524.966479</ele>
        <time>2021-11-28T08:51:14.567Z</time>
      </trkpt>
      <trkpt lat="49.776192" lon="11.974043">
        <ele>524.129064</ele>
        <time>2021-11-28T08:51:22.568Z</time>
      </trkpt>
      <trkpt lat="49.776223" lon="11.973904">
        <ele>523.267397</ele>
        <time>2021-11-28T08:51:31.582Z</time>
      </trkpt>
      <trkpt lat="49.776248" lon="11.973754">
        <ele>522.359680</ele>
        <time>2021-11-28T08:51:42.566Z</time>
      </trkpt>
      <trkpt lat="49.776254" lon="11.973611">
        <ele>521.520012</ele>
        <time>2021-11-28T08:51:50.570Z</time>
      </trkpt>
      <trkpt lat="49.776269" lon="11.973468">
        <ele>520.671130</ele>
        <time>2021-11-28T08:51:59.584Z</time>
      </trkpt>
      <trkpt lat="49.776236" lon="11.973337">
        <ele>519.847208</ele>
        <time>2021-11-28T08:52:14.588Z</time>
      </trkpt>
      <trkpt lat="49.776141" lon="11.973300">
        <ele>519.455546</ele>
        <time>2021-11-28T08:52:25.570Z</time>
      </trkpt>
      <trkpt lat="49.776081" lon="11.973193">
        <ele>519.457810</ele>
        <time>2021-11-28T08:52:44.591Z</time>
      </trkpt>
      <trkpt lat="49.776128" lon="11.973064">
        <ele>519.460177</ele>
        <time>2021-11-28T08:52:57.577Z</time>
      </trkpt>
      <trkpt lat="49.776159" lon="11.972933">
        <ele>519.462406</ele>
        <time>2021-11-28T08:53:07.580Z</time>
      </trkpt>
      <trkpt lat="49.776180" lon="11.972783">
        <ele>519.464859</ele>
        <time>2021-11-28T08:53:17.573Z</time>
      </trkpt>
      <trkpt lat="49.776199" lon="11.972629">
        <ele>519.467364</ele>
        <time>2021-11-28T08:53:27.577Z</time>
      </trkpt>
      <trkpt lat="49.776224" lon="11.972483">
        <ele>519.469778</ele>
        <time>2021-11-28T08:53:35.578Z</time>
      </trkpt>
      <trkpt lat="49.776226" lon="11.972343">
        <ele>519.472015</ele>
        <time>2021-11-28T08:53:42.567Z</time>
      </trkpt>
      <trkpt lat="49.776218" lon="11.972179">
        <ele>519.474643</ele>
        <time>2021-11-28T08:53:51.566Z</time>
      </trkpt>
      <trkpt lat="49.776233" lon="11.972028">
        <ele>519.477085</ele>
        <time>2021-11-28T08:53:58.560Z</time>
      </trkpt>
      <trkpt lat="49.776242" lon="11.971881">
        <ele>519.479444</ele>
        <time>2021-11-28T08:54:06.570Z</time>
      </trkpt>
      <trkpt lat="49.776253" lon="11.971728">
        <ele>519.481904</ele>
        <time>2021-11-28T08:54:13.569Z</time>
      </trkpt>
      <trkpt lat="49.776269" lon="11.971572">
        <ele>519.484428</ele>
        <time>2021-11-28T08:54:21.567Z</time>
      </trkpt>
      <trkpt lat="49.776291" lon="11.971424">
        <ele>519.486855</ele>
        <time>2021-11-28T08:54:29.579Z</time>
      </trkpt>
      <trkpt lat="49.776272" lon="11.971269">
        <ele>519.489376</ele>
        <time>2021-11-28T08:54:42.570Z</time>
      </trkpt>
      <trkpt lat="49.776240" lon="11.971071">
        <ele>519.492637</ele>
        <time>2021-11-28T08:55:16.605Z</time>
      </trkpt>
      <trkpt lat="49.776325" lon="11.971149">
        <ele>519.495082</ele>
        <time>2021-11-28T08:56:35.590Z</time>
      </trkpt>
      <trkpt lat="49.776416" lon="11.971122">
        <ele>519.497375</ele>
        <time>2021-11-28T08:56:50.593Z</time>
      </trkpt>
      <trkpt lat="49.776470" lon="11.971008">
        <ele>519.698699</ele>
        <time>2021-11-28T08:57:00.587Z</time>
      </trkpt>
      <trkpt lat="49.776555" lon="11.970904">
        <ele>520.272515</ele>
        <time>2021-11-28T08:58:03.600Z</time>
      </trkpt>
      <trkpt lat="49.776634" lon="11.970818">
        <ele>520.784024</ele>
        <time>2021-11-28T08:58:13.592Z</time>
      </trkpt>
      <trkpt lat="49.776725" lon="11.970763">
        <ele>521.301455</ele>
        <time>2021-11-28T08:58:21.586Z</time>
      </trkpt>
      <trkpt lat="49.776813" lon="11.970701">
        <ele>521.813560</ele>
        <time>2021-11-28T08:58:29.569Z</time>
      </trkpt>
      <trkpt lat="49.776895" lon="11.970631">
        <ele>522.309532</ele>
        <time>2021-11-28T08:58:38.573Z</time>
      </trkpt>
      <trkpt lat="49.776978" lon="11.970574">
        <ele>522.790468</ele>
        <time>2021-11-28T08:58:46.580Z</time>
      </trkpt>
      <trkpt lat="49.777068" lon="11.970524">
        <ele>523.296941</ele>
        <time>2021-11-28T08:58:55.580Z</time>
      </trkpt>
      <trkpt lat="49.777153" lon="11.970477">
        <ele>523.775019</ele>
        <time>2021-11-28T08:59:03.576Z</time>
      </trkpt>
      <trkpt lat="49.777239" lon="11.970416">
        <ele>524.276065</ele>
        <time>2021-11-28T08:59:11.589Z</time>
      </trkpt>
      <trkpt lat="49.777318" lon="11.970336">
        <ele>524.776051</ele>
        <time>2021-11-28T08:59:19.582Z</time>
      </trkpt>
      <trkpt lat="49.777390" lon="11.970229">
        <ele>525.304636</ele>
        <time>2021-11-28T08:59:28.594Z</time>
      </trkpt>
      <trkpt lat="49.777455" lon="11.970114">
        <ele>525.827392</ele>
        <time>2021-11-28T08:59:36.562Z</time>
      </trkpt>
      <trkpt lat="49.777499" lon="11.969977">
        <ele>526.350761</ele>
        <time>2021-11-28T08:59:45.576Z</time>
      </trkpt>
      <trkpt lat="49.777531" lon="11.969833">
        <ele>526.871664</ele>
        <time>2021-11-28T08:59:54.572Z</time>
      </trkpt>
      <trkpt lat="49.777562" lon="11.969686">
        <ele>527.400613</ele>
        <time>2021-11-28T09:00:02.572Z</time>
      </trkpt>
      <trkpt lat="49.777566" lon="11.969530">
        <ele>527.934634</ele>
        <time>2021-11-28T09:00:10.597Z</time>
      </trkpt>
      <trkpt lat="49.777566" lon="11.969381">
        <ele>528.444290</ele>
        <time>2021-11-28T09:00:18.579Z</time>
      </trkpt>
      <trkpt lat="49.777567" lon="11.969229">
        <ele>528.964235</ele>
        <time>2021-11-28T09:00:26.577Z</time>
      </trkpt>
      <trkpt lat="49.777572" lon="11.969075">
        <ele>529.422213</ele>
        <time>2021-11-28T09:00:34.585Z</time>
      </trkpt>
      <trkpt lat="49.777577" lon="11.968924">
        <ele>529.862269</ele>
        <time>2021-11-28T09:00:42.559Z</time>
      </trkpt>
      <trkpt lat="49.777574" lon="11.968770">
        <ele>530.310683</ele>
        <time>2021-11-28T09:00:50.575Z</time>
      </trkpt>
      <trkpt lat="49.777583" lon="11.968630">
        <ele>530.720160</ele>
        <time>2021-11-28T09:00:58.582Z</time>
      </trkpt>
      <trkpt lat="49.777581" lon="11.968484">
        <ele>531.145182</ele>
        <time>2021-11-28T09:01:06.582Z</time>
      </trkpt>
      <trkpt lat="49.777587" lon="11.968327">
        <ele>531.602922</ele>
        <time>2021-11-28T09:01:15.583Z</time>
      </trkpt>
      <trkpt lat="49.777592" lon="11.968176">
        <ele>532.042978</ele>
        <time>2021-11-28T09:01:23.568Z</time>
      </trkpt>
      <trkpt lat="49.777597" lon="11.968027">
        <ele>532.477220</ele>
        <time>2021-11-28T09:01:31.575Z</time>
      </trkpt>
      <trkpt lat="49.777596" lon="11.967882">
        <ele>532.899260</ele>
        <time>2021-11-28T09:01:39.573Z</time>
      </trkpt>
      <trkpt lat="49.777598" lon="11.967727">
        <ele>533.350470</ele>
        <time>2021-11-28T09:01:48.584Z</time>
      </trkpt>
      <trkpt lat="49.777596" lon="11.967577">
        <ele>533.787131</ele>
        <time>2021-11-28T09:01:56.576Z</time>
      </trkpt>
      <trkpt lat="49.777588" lon="11.967424">
        <ele>534.233887</ele>
        <time>2021-11-28T09:02:04.575Z</time>
      </trkpt>
      <trkpt lat="49.777589" lon="11.967282">
        <ele>534.647196</ele>
        <time>2021-11-28T09:02:12.582Z</time>
      </trkpt>
      <trkpt lat="49.777589" lon="11.967134">
        <ele>535.077943</ele>
        <time>2021-11-28T09:02:20.572Z</time>
      </trkpt>
      <trkpt lat="49.777610" lon="11.966986">
        <ele>535.518966</ele>
        <time>2021-11-28T09:02:28.575Z</time>
      </trkpt>
      <trkpt lat="49.777612" lon="11.966846">
        <ele>535.926529</ele>
        <time>2021-11-28T09:02:35.586Z</time>
      </trkpt>
      <trkpt lat="49.777630" lon="11.966702">
        <ele>536.353413</ele>
        <time>2021-11-28T09:02:43.587Z</time>
      </trkpt>
      <trkpt lat="49.777647" lon="11.966555">
        <ele>536.788056</ele>
        <time>2021-11-28T09:02:51.580Z</time>
      </trkpt>
      <trkpt lat="49.777694" lon="11.966421">
        <ele>537.188273</ele>
        <time>2021-11-28T09:02:59.575Z</time>
      </trkpt>
      <trkpt lat="49.777753" lon="11.966302">
        <ele>537.433330</ele>
        <time>2021-11-28T09:03:07.583Z</time>
      </trkpt>
      <trkpt lat="49.777824" lon="11.966201">
        <ele>537.677191</ele>
        <time>2021-11-28T09:03:15.590Z</time>
      </trkpt>
      <trkpt lat="49.777908" lon="11.966122">
        <ele>537.925778</ele>
        <time>2021-11-28T09:03:23.566Z</time>
      </trkpt>
      <trkpt lat="49.777995" lon="11.966059">
        <ele>538.168709</ele>
        <time>2021-11-28T09:03:31.573Z</time>
      </trkpt>
      <trkpt lat="49.778083" lon="11.966004">
        <ele>538.408745</ele>
        <time>2021-11-28T09:03:40.596Z</time>
      </trkpt>
      <trkpt lat="49.778177" lon="11.965963">
        <ele>538.655763</ele>
        <time>2021-11-28T09:03:49.580Z</time>
      </trkpt>
      <trkpt lat="49.778267" lon="11.965933">
        <ele>538.888626</ele>
        <time>2021-11-28T09:03:56.570Z</time>
      </trkpt>
      <trkpt lat="49.778358" lon="11.965886">
        <ele>539.131268</ele>
        <time>2021-11-28T09:04:04.573Z</time>
      </trkpt>
      <trkpt lat="49.778448" lon="11.965831">
        <ele>539.376002</ele>
        <time>2021-11-28T09:04:13.582Z</time>
      </trkpt>
      <trkpt lat="49.778529" lon="11.965746">
        <ele>539.623495</ele>
        <time>2021-11-28T09:04:21.568Z</time>
      </trkpt>
      <trkpt lat="49.778602" lon="11.965655">
        <ele>539.860535</ele>
        <time>2021-11-28T09:04:29.571Z</time>
      </trkpt>
      <trkpt lat="49.778663" lon="11.965549">
        <ele>540.092447</ele>
        <time>2021-11-28T09:04:37.581Z</time>
      </trkpt>
      <trkpt lat="49.778717" lon="11.965435">
        <ele>540.323377</ele>
        <time>2021-11-28T09:04:45.573Z</time>
      </trkpt>
      <trkpt lat="49.778771" lon="11.965323">
        <ele>540.551680</ele>
        <time>2021-11-28T09:04:53.564Z</time>
      </trkpt>
      <trkpt lat="49.778815" lon="11.965198">
        <ele>540.784213</ele>
        <time>2021-11-28T09:05:01.571Z</time>
      </trkpt>
      <trkpt lat="49.778850" lon="11.965064">
        <ele>541.020310</ele>
        <time>2021-11-28T09:05:08.577Z</time>
      </trkpt>
      <trkpt lat="49.778876" lon="11.964915">
        <ele>541.272409</ele>
        <time>2021-11-28T09:05:16.581Z</time>
      </trkpt>
      <trkpt lat="49.778894" lon="11.964778">
        <ele>541.500763</ele>
        <time>2021-11-28T09:05:24.588Z</time>
      </trkpt>
      <trkpt lat="49.778920" lon="11.964637">
        <ele>541.647831</ele>
        <time>2021-11-28T09:05:32.572Z</time>
      </trkpt>
      <trkpt lat="49.778928" lon="11.964491">
        <ele>541.507120</ele>
        <time>2021-11-28T09:05:40.577Z</time>
      </trkpt>
      <trkpt lat="49.778941" lon="11.964346">
        <ele>541.366537</ele>
        <time>2021-11-28T09:05:48.586Z</time>
      </trkpt>
      <trkpt lat="49.778938" lon="11.964194">
        <ele>541.220500</ele>
        <time>2021-11-28T09:05:57.571Z</time>
      </trkpt>
      <trkpt lat="49.778930" lon="11.964042">
        <ele>541.074047</ele>
        <time>2021-11-28T09:06:10.569Z</time>
      </trkpt>
      <trkpt lat="49.778940" lon="11.963901">
        <ele>540.937827</ele>
        <time>2021-11-28T09:06:18.597Z</time>
      </trkpt>
      <trkpt lat="49.778956" lon="11.963751">
        <ele>540.791827</ele>
        <time>2021-11-28T09:06:26.568Z</time>
      </trkpt>
      <trkpt lat="49.778970" lon="11.963607">
        <ele>540.651982</ele>
        <time>2021-11-28T09:06:34.571Z</time>
      </trkpt>
      <trkpt lat="49.778986" lon="11.963458">
        <ele>540.506929</ele>
        <time>2021-11-28T09:06:42.581Z</time>
      </trkpt>
      <trkpt lat="49.779016" lon="11.963320">
        <ele>540.367096</ele>
        <time>2021-11-28T09:06:50.575Z</time>
      </trkpt>
      <trkpt lat="49.779044" lon="11.963183">
        <ele>540.229100</ele>
        <time>2021-11-28T09:06:59.570Z</time>
      </trkpt>
      <trkpt lat="49.779080" lon="11.963055">
        <ele>540.095025</ele>
        <time>2021-11-28T09:07:07.567Z</time>
      </trkpt>
      <trkpt lat="49.779182" lon="11.962991">
        <ele>539.931356</ele>
        <time>2021-11-28T09:08:52.582Z</time>
      </trkpt>
      <trkpt lat="49.779129" lon="11.962863">
        <ele>539.785335</ele>
        <time>2021-11-28T09:09:16.591Z</time>
      </trkpt>
      <trkpt lat="49.779060" lon="11.962774">
        <ele>539.651789</ele>
        <time>2021-11-28T09:09:25.580Z</time>
      </trkpt>
      <trkpt lat="49.778968" lon="11.962728">
        <ele>539.508014</ele>
        <time>2021-11-28T09:09:36.575Z</time>
      </trkpt>
      <trkpt lat="49.778872" lon="11.962691">
        <ele>539.360891</ele>
        <time>2021-11-28T09:09:45.579Z</time>
      </trkpt>
      <trkpt lat="49.778782" lon="11.962665">
        <ele>539.224737</ele>
        <time>2021-11-28T09:09:56.580Z</time>
      </trkpt>
      <trkpt lat="49.778684" lon="11.962695">
        <ele>539.076174</ele>
        <time>2021-11-28T09:10:11.575Z</time>
      </trkpt>
      <trkpt lat="49.778589" lon="11.962741">
        <ele>538.900962</ele>
        <time>2021-11-28T09:10:21.578Z</time>
      </trkpt>
      <trkpt lat="49.778505" lon="11.962794">
        <ele>538.719663</ele>
        <time>2021-11-28T09:10:31.574Z</time>
      </trkpt>
      <trkpt lat="49.778407" lon="11.962806">
        <ele>538.523171</ele>
        <time>2021-11-28T09:10:40.576Z</time>
      </trkpt>
      <trkpt lat="49.778306" lon="11.962813">
        <ele>538.321091</ele>
        <time>2021-11-28T09:10:49.569Z</time>
      </trkpt>
      <trkpt lat="49.778214" lon="11.962799">
        <ele>538.136317</ele>
        <time>2021-11-28T09:10:58.578Z</time>
      </trkpt>
      <trkpt lat="49.778113" lon="11.962794">
        <ele>537.934336</ele>
        <time>2021-11-28T09:11:08.585Z</time>
      </trkpt>
      <trkpt lat="49.778013" lon="11.962780">
        <ele>537.733642</ele>
        <time>2021-11-28T09:11:16.583Z</time>
      </trkpt>
      <trkpt lat="49.777914" lon="11.962806">
        <ele>537.532937</ele>
        <time>2021-11-28T09:11:25.570Z</time>
      </trkpt>
      <trkpt lat="49.777820" lon="11.962833">
        <ele>537.341846</ele>
        <time>2021-11-28T09:11:33.575Z</time>
      </trkpt>
      <trkpt lat="49.777722" lon="11.962866">
        <ele>537.141387</ele>
        <time>2021-11-28T09:11:41.577Z</time>
      </trkpt>
      <trkpt lat="49.777624" lon="11.962892">
        <ele>536.942652</ele>
        <time>2021-11-28T09:11:50.572Z</time>
      </trkpt>
      <trkpt lat="49.777528" lon="11.962921">
        <ele>536.747152</ele>
        <time>2021-11-28T09:11:59.569Z</time>
      </trkpt>
      <trkpt lat="49.777426" lon="11.962949">
        <ele>536.540097</ele>
        <time>2021-11-28T09:12:08.587Z</time>
      </trkpt>
      <trkpt lat="49.777333" lon="11.962968">
        <ele>536.352599</ele>
        <time>2021-11-28T09:12:17.576Z</time>
      </trkpt>
      <trkpt lat="49.777242" lon="11.962978">
        <ele>536.170252</ele>
        <time>2021-11-28T09:12:26.577Z</time>
      </trkpt>
      <trkpt lat="49.777149" lon="11.962996">
        <ele>535.982918</ele>
        <time>2021-11-28T09:12:34.571Z</time>
      </trkpt>
      <trkpt lat="49.777054" lon="11.963004">
        <ele>535.792753</ele>
        <time>2021-11-28T09:12:42.586Z</time>
      </trkpt>
      <trkpt lat="49.776960" lon="11.963003">
        <ele>535.604862</ele>
        <time>2021-11-28T09:12:50.580Z</time>
      </trkpt>
      <trkpt lat="49.776865" lon="11.963014">
        <ele>535.414447</ele>
        <time>2021-11-28T09:12:59.576Z</time>
      </trkpt>
      <trkpt lat="49.776776" lon="11.962987">
        <ele>534.861507</ele>
        <time>2021-11-28T09:13:08.586Z</time>
      </trkpt>
      <trkpt lat="49.776686" lon="11.962946">
        <ele>534.284409</ele>
        <time>2021-11-28T09:13:19.573Z</time>
      </trkpt>
      <trkpt lat="49.776604" lon="11.962874">
        <ele>533.704538</ele>
        <time>2021-11-28T09:13:28.575Z</time>
      </trkpt>
      <trkpt lat="49.776514" lon="11.962817">
        <ele>533.106386</ele>
        <time>2021-11-28T09:13:36.598Z</time>
      </trkpt>
      <trkpt lat="49.776424" lon="11.962738">
        <ele>532.469988</ele>
        <time>2021-11-28T09:13:45.571Z</time>
      </trkpt>
      <trkpt lat="49.776337" lon="11.962674">
        <ele>531.877487</ele>
        <time>2021-11-28T09:13:54.569Z</time>
      </trkpt>
      <trkpt lat="49.776254" lon="11.962612">
        <ele>531.310609</ele>
        <time>2021-11-28T09:14:03.572Z</time>
      </trkpt>
      <trkpt lat="49.776171" lon="11.962539">
        <ele>530.723426</ele>
        <time>2021-11-28T09:14:11.582Z</time>
      </trkpt>
      <trkpt lat="49.776092" lon="11.962471">
        <ele>530.167424</ele>
        <time>2021-11-28T09:14:19.579Z</time>
      </trkpt>
      <trkpt lat="49.776012" lon="11.962402">
        <ele>529.604115</ele>
        <time>2021-11-28T09:14:27.567Z</time>
      </trkpt>
      <trkpt lat="49.775943" lon="11.962309">
        <ele>529.041396</ele>
        <time>2021-11-28T09:14:35.574Z</time>
      </trkpt>
      <trkpt lat="49.775872" lon="11.962220">
        <ele>528.479472</ele>
        <time>2021-11-28T09:14:44.569Z</time>
      </trkpt>
      <trkpt lat="49.775805" lon="11.962112">
        <ele>527.884544</ele>
        <time>2021-11-28T09:14:53.576Z</time>
      </trkpt>
      <trkpt lat="49.775737" lon="11.961995">
        <ele>527.259240</ele>
        <time>2021-11-28T09:15:02.567Z</time>
      </trkpt>
      <trkpt lat="49.775673" lon="11.961898">
        <ele>526.708347</ele>
        <time>2021-11-28T09:15:11.588Z</time>
      </trkpt>
      <trkpt lat="49.775618" lon="11.961782">
        <ele>526.136665</ele>
        <time>2021-11-28T09:15:19.583Z</time>
      </trkpt>
      <trkpt lat="49.775583" lon="11.961638">
        <ele>525.525441</ele>
        <time>2021-11-28T09:15:28.578Z</time>
      </trkpt>
      <trkpt lat="49.775553" lon="11.961497">
        <ele>524.935693</ele>
        <time>2021-11-28T09:15:37.568Z</time>
      </trkpt>
      <trkpt lat="49.775524" lon="11.961347">
        <ele>524.297821</ele>
        <time>2021-11-28T09:15:46.571Z</time>
      </trkpt>
      <trkpt lat="49.775499" lon="11.961196">
        <ele>523.389571</ele>
        <time>2021-11-28T09:15:55.578Z</time>
      </trkpt>
      <trkpt lat="49.775472" lon="11.961058">
        <ele>522.549425</ele>
        <time>2021-11-28T09:16:04.585Z</time>
      </trkpt>
      <trkpt lat="49.775444" lon="11.960912">
        <ele>521.662041</ele>
        <time>2021-11-28T09:16:13.587Z</time>
      </trkpt>
      <trkpt lat="49.775424" lon="11.960771">
        <ele>520.820923</ele>
        <time>2021-11-28T09:16:21.569Z</time>
      </trkpt>
      <trkpt lat="49.775402" lon="11.960634">
        <ele>519.998386</ele>
        <time>2021-11-28T09:16:30.566Z</time>
      </trkpt>
      <trkpt lat="49.775385" lon="11.960494">
        <ele>519.168383</ele>
        <time>2021-11-28T09:16:38.589Z</time>
      </trkpt>
      <trkpt lat="49.775368" lon="11.960346">
        <ele>518.292529</ele>
        <time>2021-11-28T09:16:47.568Z</time>
      </trkpt>
      <trkpt lat="49.775365" lon="11.960198">
        <ele>517.429784</ele>
        <time>2021-11-28T09:16:57.579Z</time>
      </trkpt>
      <trkpt lat="49.775372" lon="11.960045">
        <ele>516.536096</ele>
        <time>2021-11-28T09:17:05.566Z</time>
      </trkpt>
      <trkpt lat="49.775389" lon="11.959893">
        <ele>515.637287</ele>
        <time>2021-11-28T09:17:13.578Z</time>
      </trkpt>
      <trkpt lat="49.775417" lon="11.959750">
        <ele>514.766643</ele>
        <time>2021-11-28T09:17:22.586Z</time>
      </trkpt>
      <trkpt lat="49.775428" lon="11.959571">
        <ele>513.718991</ele>
        <time>2021-11-28T09:17:34.591Z</time>
      </trkpt>
      <trkpt lat="49.775410" lon="11.959430">
        <ele>512.881559</ele>
        <time>2021-11-28T09:17:42.591Z</time>
      </trkpt>
      <trkpt lat="49.775363" lon="11.959303">
        <ele>512.028703</ele>
        <time>2021-11-28T09:17:56.583Z</time>
      </trkpt>
      <trkpt lat="49.775307" lon="11.959190">
        <ele>511.198787</ele>
        <time>2021-11-28T09:18:05.572Z</time>
      </trkpt>
      <trkpt lat="49.775246" lon="11.959074">
        <ele>510.327178</ele>
        <time>2021-11-28T09:18:14.562Z</time>
      </trkpt>
      <trkpt lat="49.775181" lon="11.958961">
        <ele>509.445470</ele>
        <time>2021-11-28T09:18:23.573Z</time>
      </trkpt>
      <trkpt lat="49.775126" lon="11.958839">
        <ele>508.578563</ele>
        <time>2021-11-28T09:18:31.572Z</time>
      </trkpt>
      <trkpt lat="49.775077" lon="11.958717">
        <ele>507.957968</ele>
        <time>2021-11-28T09:18:39.575Z</time>
      </trkpt>
      <trkpt lat="49.775031" lon="11.958581">
        <ele>507.575451</ele>
        <time>2021-11-28T09:18:47.578Z</time>
      </trkpt>
      <trkpt lat="49.774990" lon="11.958448">
        <ele>507.208252</ele>
        <time>2021-11-28T09:18:55.576Z</time>
      </trkpt>
      <trkpt lat="49.774954" lon="11.958317">
        <ele>506.853532</ele>
        <time>2021-11-28T09:19:03.577Z</time>
      </trkpt>
      <trkpt lat="49.774916" lon="11.958181">
        <ele>506.484321</ele>
        <time>2021-11-28T09:19:11.583Z</time>
      </trkpt>
      <trkpt lat="49.774886" lon="11.958032">
        <ele>506.095450</ele>
        <time>2021-11-28T09:19:20.595Z</time>
      </trkpt>
      <trkpt lat="49.774852" lon="11.957890">
        <ele>505.718111</ele>
        <time>2021-11-28T09:19:29.569Z</time>
      </trkpt>
      <trkpt lat="49.774814" lon="11.957762">
        <ele>505.367103</ele>
        <time>2021-11-28T09:19:37.567Z</time>
      </trkpt>
      <trkpt lat="49.774769" lon="11.957632">
        <ele>504.999600</ele>
        <time>2021-11-28T09:19:45.579Z</time>
      </trkpt>
      <trkpt lat="49.774720" lon="11.957509">
        <ele>504.639516</ele>
        <time>2021-11-28T09:19:53.582Z</time>
      </trkpt>
      <trkpt lat="49.774674" lon="11.957383">
        <ele>504.278882</ele>
        <time>2021-11-28T09:20:02.569Z</time>
      </trkpt>
      <trkpt lat="49.774631" lon="11.957257">
        <ele>503.923802</ele>
        <time>2021-11-28T09:20:10.583Z</time>
      </trkpt>
      <trkpt lat="49.774583" lon="11.957122">
        <ele>503.539826</ele>
        <time>2021-11-28T09:20:18.579Z</time>
      </trkpt>
      <trkpt lat="49.774541" lon="11.956999">
        <ele>503.193156</ele>
        <time>2021-11-28T09:20:27.571Z</time>
      </trkpt>
      <trkpt lat="49.774486" lon="11.956882">
        <ele>502.832586</ele>
        <time>2021-11-28T09:20:34.586Z</time>
      </trkpt>
      <trkpt lat="49.774413" lon="11.956781">
        <ele>502.454891</ele>
        <time>2021-11-28T09:20:43.588Z</time>
      </trkpt>
      <trkpt lat="49.774341" lon="11.956696">
        <ele>502.105577</ele>
        <time>2021-11-28T09:20:50.584Z</time>
      </trkpt>
      <trkpt lat="49.774264" lon="11.956607">
        <ele>501.734861</ele>
        <time>2021-11-28T09:20:58.579Z</time>
      </trkpt>
      <trkpt lat="49.774190" lon="11.956527">
        <ele>501.386658</ele>
        <time>2021-11-28T09:21:06.569Z</time>
      </trkpt>
      <trkpt lat="49.774097" lon="11.956463">
        <ele>501.074137</ele>
        <time>2021-11-28T09:21:16.584Z</time>
      </trkpt>
      <trkpt lat="49.774008" lon="11.956403">
        <ele>500.860766</ele>
        <time>2021-11-28T09:21:25.573Z</time>
      </trkpt>
      <trkpt lat="49.773929" lon="11.956327">
        <ele>500.656328</ele>
        <time>2021-11-28T09:21:33.570Z</time>
      </trkpt>
      <trkpt lat="49.773851" lon="11.956240">
        <ele>500.445023</ele>
        <time>2021-11-28T09:21:41.563Z</time>
      </trkpt>
      <trkpt lat="49.773788" lon="11.956136">
        <ele>500.242603</ele>
        <time>2021-11-28T09:21:49.572Z</time>
      </trkpt>
      <trkpt lat="49.773734" lon="11.956021">
        <ele>500.040761</ele>
        <time>2021-11-28T09:21:58.576Z</time>
      </trkpt>
      <trkpt lat="49.773681" lon="11.955890">
        <ele>499.821317</ele>
        <time>2021-11-28T09:22:07.581Z</time>
      </trkpt>
      <trkpt lat="49.773651" lon="11.955746">
        <ele>499.606525</ele>
        <time>2021-11-28T09:22:15.566Z</time>
      </trkpt>
      <trkpt lat="49.773628" lon="11.955599">
        <ele>499.391810</ele>
        <time>2021-11-28T09:22:23.563Z</time>
      </trkpt>
      <trkpt lat="49.773603" lon="11.955454">
        <ele>499.178762</ele>
        <time>2021-11-28T09:22:31.572Z</time>
      </trkpt>
      <trkpt lat="49.773581" lon="11.955317">
        <ele>498.978357</ele>
        <time>2021-11-28T09:22:39.568Z</time>
      </trkpt>
      <trkpt lat="49.773557" lon="11.955171">
        <ele>498.764490</ele>
        <time>2021-11-28T09:22:47.561Z</time>
      </trkpt>
      <trkpt lat="49.773526" lon="11.955026">
        <ele>498.547665</ele>
        <time>2021-11-28T09:22:55.564Z</time>
      </trkpt>
      <trkpt lat="49.773511" lon="11.954882">
        <ele>498.340603</ele>
        <time>2021-11-28T09:23:04.588Z</time>
      </trkpt>
      <trkpt lat="49.773493" lon="11.954742">
        <ele>498.137961</ele>
        <time>2021-11-28T09:23:14.585Z</time>
      </trkpt>
      <trkpt lat="49.773477" lon="11.954588">
        <ele>497.916535</ele>
        <time>2021-11-28T09:23:22.570Z</time>
      </trkpt>
      <trkpt lat="49.773463" lon="11.954444">
        <ele>497.709811</ele>
        <time>2021-11-28T09:23:30.566Z</time>
      </trkpt>
      <trkpt lat="49.773449" lon="11.954295">
        <ele>497.496066</ele>
        <time>2021-11-28T09:23:38.567Z</time>
      </trkpt>
      <trkpt lat="49.773432" lon="11.954149">
        <ele>497.285465</ele>
        <time>2021-11-28T09:23:46.576Z</time>
      </trkpt>
      <trkpt lat="49.773414" lon="11.954011">
        <ele>497.063182</ele>
        <time>2021-11-28T09:23:53.566Z</time>
      </trkpt>
      <trkpt lat="49.773394" lon="11.953866">
        <ele>496.819215</ele>
        <time>2021-11-28T09:24:01.581Z</time>
      </trkpt>
      <trkpt lat="49.773370" lon="11.953713">
        <ele>496.560147</ele>
        <time>2021-11-28T09:24:09.580Z</time>
      </trkpt>
      <trkpt lat="49.773351" lon="11.953573">
        <ele>496.324757</ele>
        <time>2021-11-28T09:24:16.574Z</time>
      </trkpt>
      <trkpt lat="49.773337" lon="11.953422">
        <ele>496.073751</ele>
        <time>2021-11-28T09:24:24.571Z</time>
      </trkpt>
      <trkpt lat="49.773319" lon="11.953278">
        <ele>495.832413</ele>
        <time>2021-11-28T09:24:32.577Z</time>
      </trkpt>
      <trkpt lat="49.773305" lon="11.953127">
        <ele>495.581407</ele>
        <time>2021-11-28T09:24:40.587Z</time>
      </trkpt>
      <trkpt lat="49.773285" lon="11.952985">
        <ele>495.342265</ele>
        <time>2021-11-28T09:24:48.565Z</time>
      </trkpt>
      <trkpt lat="49.773266" lon="11.952839">
        <ele>495.097205</ele>
        <time>2021-11-28T09:24:56.576Z</time>
      </trkpt>
      <trkpt lat="49.773252" lon="11.952690">
        <ele>494.849456</ele>
        <time>2021-11-28T09:25:04.568Z</time>
      </trkpt>
      <trkpt lat="49.773232" lon="11.952555">
        <ele>494.621554</ele>
        <time>2021-11-28T09:25:12.561Z</time>
      </trkpt>
      <trkpt lat="49.773209" lon="11.952409">
        <ele>494.374278</ele>
        <time>2021-11-28T09:25:21.576Z</time>
      </trkpt>
      <trkpt lat="49.773179" lon="11.952263">
        <ele>494.122180</ele>
        <time>2021-11-28T09:25:29.579Z</time>
      </trkpt>
      <trkpt lat="49.773149" lon="11.952132">
        <ele>493.893478</ele>
        <time>2021-11-28T09:25:38.561Z</time>
      </trkpt>
      <trkpt lat="49.773108" lon="11.951987">
        <ele>493.633025</ele>
        <time>2021-11-28T09:25:46.586Z</time>
      </trkpt>
      <trkpt lat="49.773069" lon="11.951852">
        <ele>493.389681</ele>
        <time>2021-11-28T09:25:54.575Z</time>
      </trkpt>
      <trkpt lat="49.773032" lon="11.951711">
        <ele>493.139255</ele>
        <time>2021-11-28T09:26:03.570Z</time>
      </trkpt>
      <trkpt lat="49.772981" lon="11.951590">
        <ele>492.901507</ele>
        <time>2021-11-28T09:26:11.570Z</time>
      </trkpt>
      <trkpt lat="49.772941" lon="11.951458">
        <ele>492.661589</ele>
        <time>2021-11-28T09:26:19.588Z</time>
      </trkpt>
      <trkpt lat="49.772893" lon="11.951320">
        <ele>492.405506</ele>
        <time>2021-11-28T09:26:28.577Z</time>
      </trkpt>
      <trkpt lat="49.772853" lon="11.951180">
        <ele>492.155523</ele>
        <time>2021-11-28T09:26:36.574Z</time>
      </trkpt>
      <trkpt lat="49.772809" lon="11.951037">
        <ele>491.896866</ele>
        <time>2021-11-28T09:26:45.573Z</time>
      </trkpt>
      <trkpt lat="49.772773" lon="11.950897">
        <ele>491.650800</ele>
        <time>2021-11-28T09:26:53.569Z</time>
      </trkpt>
      <trkpt lat="49.772736" lon="11.950764">
        <ele>491.414328</ele>
        <time>2021-11-28T09:27:00.587Z</time>
      </trkpt>
      <trkpt lat="49.772700" lon="11.950634">
        <ele>491.183354</ele>
        <time>2021-11-28T09:27:07.569Z</time>
      </trkpt>
      <trkpt lat="49.772660" lon="11.950505">
        <ele>490.949683</ele>
        <time>2021-11-28T09:27:15.571Z</time>
      </trkpt>
      <trkpt lat="49.772623" lon="11.950363">
        <ele>490.699645</ele>
        <time>2021-11-28T09:27:24.579Z</time>
      </trkpt>
      <trkpt lat="49.772575" lon="11.950231">
        <ele>490.452278</ele>
        <time>2021-11-28T09:27:34.575Z</time>
      </trkpt>
      <trkpt lat="49.772525" lon="11.950111">
        <ele>490.219082</ele>
        <time>2021-11-28T09:27:43.569Z</time>
      </trkpt>
      <trkpt lat="49.772466" lon="11.949983">
        <ele>489.962289</ele>
        <time>2021-11-28T09:27:52.586Z</time>
      </trkpt>
      <trkpt lat="49.772415" lon="11.949847">
        <ele>489.705486</ele>
        <time>2021-11-28T09:28:00.576Z</time>
      </trkpt>
      <trkpt lat="49.772375" lon="11.949703">
        <ele>489.449514</ele>
        <time>2021-11-28T09:28:08.587Z</time>
      </trkpt>
      <trkpt lat="49.772333" lon="11.949560">
        <ele>489.192989</ele>
        <time>2021-11-28T09:28:16.575Z</time>
      </trkpt>
      <trkpt lat="49.772290" lon="11.949421">
        <ele>488.941313</ele>
        <time>2021-11-28T09:28:25.585Z</time>
      </trkpt>
      <trkpt lat="49.772258" lon="11.949285">
        <ele>488.704952</ele>
        <time>2021-11-28T09:28:33.575Z</time>
      </trkpt>
      <trkpt lat="49.772223" lon="11.949136">
        <ele>488.446048</ele>
        <time>2021-11-28T09:28:41.582Z</time>
      </trkpt>
      <trkpt lat="49.772191" lon="11.948993">
        <ele>488.198916</ele>
        <time>2021-11-28T09:28:49.559Z</time>
      </trkpt>
      <trkpt lat="49.772163" lon="11.948859">
        <ele>488.009157</ele>
        <time>2021-11-28T09:28:57.575Z</time>
      </trkpt>
      <trkpt lat="49.772135" lon="11.948704">
        <ele>487.829443</ele>
        <time>2021-11-28T09:29:06.576Z</time>
      </trkpt>
      <trkpt lat="49.772093" lon="11.948562">
        <ele>487.655050</ele>
        <time>2021-11-28T09:29:14.592Z</time>
      </trkpt>
      <trkpt lat="49.772043" lon="11.948431">
        <ele>487.485141</ele>
        <time>2021-11-28T09:29:21.562Z</time>
      </trkpt>
      <trkpt lat="49.771988" lon="11.948310">
        <ele>487.319925</ele>
        <time>2021-11-28T09:29:30.569Z</time>
      </trkpt>
      <trkpt lat="49.771917" lon="11.948203">
        <ele>487.148627</ele>
        <time>2021-11-28T09:29:38.570Z</time>
      </trkpt>
      <trkpt lat="49.771861" lon="11.948086">
        <ele>486.986019</ele>
        <time>2021-11-28T09:29:47.561Z</time>
      </trkpt>
      <trkpt lat="49.771814" lon="11.947949">
        <ele>486.812801</ele>
        <time>2021-11-28T09:29:57.569Z</time>
      </trkpt>
      <trkpt lat="49.771781" lon="11.947809">
        <ele>486.646391</ele>
        <time>2021-11-28T09:30:05.581Z</time>
      </trkpt>
      <trkpt lat="49.771742" lon="11.947672">
        <ele>486.479216</ele>
        <time>2021-11-28T09:30:13.576Z</time>
      </trkpt>
      <trkpt lat="49.771714" lon="11.947522">
        <ele>486.304870</ele>
        <time>2021-11-28T09:30:21.581Z</time>
      </trkpt>
      <trkpt lat="49.771686" lon="11.947387">
        <ele>486.146546</ele>
        <time>2021-11-28T09:30:28.570Z</time>
      </trkpt>
      <trkpt lat="49.771659" lon="11.947235">
        <ele>485.970520</ele>
        <time>2021-11-28T09:30:37.568Z</time>
      </trkpt>
      <trkpt lat="49.771633" lon="11.947093">
        <ele>485.805713</ele>
        <time>2021-11-28T09:30:46.585Z</time>
      </trkpt>
      <trkpt lat="49.771610" lon="11.946937">
        <ele>485.627042</ele>
        <time>2021-11-28T09:30:55.586Z</time>
      </trkpt>
      <trkpt lat="49.771587" lon="11.946790">
        <ele>485.458153</ele>
        <time>2021-11-28T09:31:03.579Z</time>
      </trkpt>
      <trkpt lat="49.771572" lon="11.946648">
        <ele>485.297488</ele>
        <time>2021-11-28T09:31:11.565Z</time>
      </trkpt>
      <trkpt lat="49.771558" lon="11.946501">
        <ele>485.131572</ele>
        <time>2021-11-28T09:31:19.576Z</time>
      </trkpt>
      <trkpt lat="49.771537" lon="11.946355">
        <ele>484.974077</ele>
        <time>2021-11-28T09:31:27.573Z</time>
      </trkpt>
      <trkpt lat="49.771513" lon="11.946213">
        <ele>484.881571</ele>
        <time>2021-11-28T09:31:35.576Z</time>
      </trkpt>
      <trkpt lat="49.771480" lon="11.946067">
        <ele>484.784085</ele>
        <time>2021-11-28T09:31:43.566Z</time>
      </trkpt>
      <trkpt lat="49.771454" lon="11.945923">
        <ele>484.689852</ele>
        <time>2021-11-28T09:31:51.570Z</time>
      </trkpt>
      <trkpt lat="49.771435" lon="11.945782">
        <ele>484.599076</ele>
        <time>2021-11-28T09:31:59.579Z</time>
      </trkpt>
      <trkpt lat="49.771408" lon="11.945649">
        <ele>484.511211</ele>
        <time>2021-11-28T09:32:06.569Z</time>
      </trkpt>
      <trkpt lat="49.771388" lon="11.945506">
        <ele>484.418999</ele>
        <time>2021-11-28T09:32:14.575Z</time>
      </trkpt>
      <trkpt lat="49.771373" lon="11.945360">
        <ele>484.325828</ele>
        <time>2021-11-28T09:32:22.582Z</time>
      </trkpt>
      <trkpt lat="49.771362" lon="11.945209">
        <ele>484.230060</ele>
        <time>2021-11-28T09:32:31.578Z</time>
      </trkpt>
      <trkpt lat="49.771339" lon="11.945058">
        <ele>484.132284</ele>
        <time>2021-11-28T09:32:39.571Z</time>
      </trkpt>
      <trkpt lat="49.771317" lon="11.944915">
        <ele>484.039639</ele>
        <time>2021-11-28T09:32:47.570Z</time>
      </trkpt>
      <trkpt lat="49.771294" lon="11.944766">
        <ele>483.943089</ele>
        <time>2021-11-28T09:32:56.565Z</time>
      </trkpt>
      <trkpt lat="49.771281" lon="11.944624">
        <ele>483.852701</ele>
        <time>2021-11-28T09:33:04.576Z</time>
      </trkpt>
      <trkpt lat="49.771252" lon="11.944475">
        <ele>483.754625</ele>
        <time>2021-11-28T09:33:12.571Z</time>
      </trkpt>
      <trkpt lat="49.771228" lon="11.944329">
        <ele>483.659677</ele>
        <time>2021-11-28T09:33:21.569Z</time>
      </trkpt>
      <trkpt lat="49.771202" lon="11.944189">
        <ele>483.567869</ele>
        <time>2021-11-28T09:33:29.571Z</time>
      </trkpt>
      <trkpt lat="49.771184" lon="11.944050">
        <ele>483.478523</ele>
        <time>2021-11-28T09:33:37.574Z</time>
      </trkpt>
      <trkpt lat="49.771159" lon="11.943904">
        <ele>483.383329</ele>
        <time>2021-11-28T09:33:45.559Z</time>
      </trkpt>
      <trkpt lat="49.771136" lon="11.943757">
        <ele>483.288005</ele>
        <time>2021-11-28T09:33:53.567Z</time>
      </trkpt>
      <trkpt lat="49.771118" lon="11.943606">
        <ele>483.075451</ele>
        <time>2021-11-28T09:34:02.570Z</time>
      </trkpt>
      <trkpt lat="49.771097" lon="11.943462">
        <ele>482.713164</ele>
        <time>2021-11-28T09:34:10.581Z</time>
      </trkpt>
      <trkpt lat="49.771078" lon="11.943318">
        <ele>482.352474</ele>
        <time>2021-11-28T09:34:18.577Z</time>
      </trkpt>
      <trkpt lat="49.771059" lon="11.943165">
        <ele>481.970119</ele>
        <time>2021-11-28T09:34:26.570Z</time>
      </trkpt>
      <trkpt lat="49.771042" lon="11.943014">
        <ele>481.593961</ele>
        <time>2021-11-28T09:34:35.563Z</time>
      </trkpt>
      <trkpt lat="49.771021" lon="11.942876">
        <ele>481.246021</ele>
        <time>2021-11-28T09:34:43.581Z</time>
      </trkpt>
      <trkpt lat="49.771000" lon="11.942733">
        <ele>480.886127</ele>
        <time>2021-11-28T09:34:53.584Z</time>
      </trkpt>
      <trkpt lat="49.770975" lon="11.942582">
        <ele>480.503575</ele>
        <time>2021-11-28T09:35:02.584Z</time>
      </trkpt>
      <trkpt lat="49.770957" lon="11.942427">
        <ele>480.117088</ele>
        <time>2021-11-28T09:35:11.575Z</time>
      </trkpt>
      <trkpt lat="49.770928" lon="11.942275">
        <ele>479.728128</ele>
        <time>2021-11-28T09:35:19.578Z</time>
      </trkpt>
      <trkpt lat="49.770905" lon="11.942122">
        <ele>479.342612</ele>
        <time>2021-11-28T09:35:27.570Z</time>
      </trkpt>
      <trkpt lat="49.770880" lon="11.941985">
        <ele>478.993237</ele>
        <time>2021-11-28T09:35:34.566Z</time>
      </trkpt>
      <trkpt lat="49.770854" lon="11.941842">
        <ele>478.628658</ele>
        <time>2021-11-28T09:35:42.589Z</time>
      </trkpt>
      <trkpt lat="49.770830" lon="11.941702">
        <ele>478.273185</ele>
        <time>2021-11-28T09:35:50.574Z</time>
      </trkpt>
      <trkpt lat="49.770805" lon="11.941558">
        <ele>477.907247</ele>
        <time>2021-11-28T09:35:58.572Z</time>
      </trkpt>
      <trkpt lat="49.770778" lon="11.941411">
        <ele>477.532188</ele>
        <time>2021-11-28T09:36:07.571Z</time>
      </trkpt>
      <trkpt lat="49.770763" lon="11.941270">
        <ele>477.181495</ele>
        <time>2021-11-28T09:36:15.573Z</time>
      </trkpt>
      <trkpt lat="49.770740" lon="11.941133">
        <ele>476.834107</ele>
        <time>2021-11-28T09:36:23.566Z</time>
      </trkpt>
      <trkpt lat="49.770726" lon="11.940991">
        <ele>476.481586</ele>
        <time>2021-11-28T09:36:32.567Z</time>
      </trkpt>
      <trkpt lat="49.770722" lon="11.940841">
        <ele>476.224412</ele>
        <time>2021-11-28T09:36:41.562Z</time>
      </trkpt>
      <trkpt lat="49.770707" lon="11.940698">
        <ele>476.008387</ele>
        <time>2021-11-28T09:36:50.567Z</time>
      </trkpt>
      <trkpt lat="49.770695" lon="11.940556">
        <ele>475.794842</ele>
        <time>2021-11-28T09:36:59.576Z</time>
      </trkpt>
      <trkpt lat="49.770669" lon="11.940415">
        <ele>475.576191</ele>
        <time>2021-11-28T09:37:07.583Z</time>
      </trkpt>
      <trkpt lat="49.770636" lon="11.940283">
        <ele>475.365131</ele>
        <time>2021-11-28T09:37:15.584Z</time>
      </trkpt>
      <trkpt lat="49.770596" lon="11.940137">
        <ele>475.128648</ele>
        <time>2021-11-28T09:37:23.561Z</time>
      </trkpt>
      <trkpt lat="49.770550" lon="11.940003">
        <ele>474.902365</ele>
        <time>2021-11-28T09:37:31.578Z</time>
      </trkpt>
      <trkpt lat="49.770530" lon="11.939855">
        <ele>474.676898</ele>
        <time>2021-11-28T09:37:39.582Z</time>
      </trkpt>
      <trkpt lat="49.770511" lon="11.939710">
        <ele>474.456279</ele>
        <time>2021-11-28T09:37:47.567Z</time>
      </trkpt>
      <trkpt lat="49.770474" lon="11.939577">
        <ele>474.240342</ele>
        <time>2021-11-28T09:37:55.562Z</time>
      </trkpt>
      <trkpt lat="49.770431" lon="11.939438">
        <ele>474.010525</ele>
        <time>2021-11-28T09:38:03.565Z</time>
      </trkpt>
      <trkpt lat="49.770386" lon="11.939311">
        <ele>473.794523</ele>
        <time>2021-11-28T09:38:10.576Z</time>
      </trkpt>
      <trkpt lat="49.770353" lon="11.939175">
        <ele>473.577888</ele>
        <time>2021-11-28T09:38:19.581Z</time>
      </trkpt>
      <trkpt lat="49.770317" lon="11.939046">
        <ele>473.368343</ele>
        <time>2021-11-28T09:38:27.566Z</time>
      </trkpt>
      <trkpt lat="49.770268" lon="11.938916">
        <ele>473.143897</ele>
        <time>2021-11-28T09:38:36.580Z</time>
      </trkpt>
      <trkpt lat="49.770225" lon="11.938794">
        <ele>472.936652</ele>
        <time>2021-11-28T09:38:44.576Z</time>
      </trkpt>
      <trkpt lat="49.770180" lon="11.938658">
        <ele>472.708792</ele>
        <time>2021-11-28T09:38:52.571Z</time>
      </trkpt>
      <trkpt lat="49.770133" lon="11.938520">
        <ele>472.476156</ele>
        <time>2021-11-28T09:39:01.571Z</time>
      </trkpt>
      <trkpt lat="49.770085" lon="11.938388">
        <ele>472.250271</ele>
        <time>2021-11-28T09:39:10.580Z</time>
      </trkpt>
      <trkpt lat="49.770039" lon="11.938248">
        <ele>472.511992</ele>
        <time>2021-11-28T09:39:19.573Z</time>
      </trkpt>
      <trkpt lat="49.770003" lon="11.938115">
        <ele>472.764798</ele>
        <time>2021-11-28T09:39:26.573Z</time>
      </trkpt>
      <trkpt lat="49.769961" lon="11.937979">
        <ele>473.029069</ele>
        <time>2021-11-28T09:39:35.583Z</time>
      </trkpt>
      <trkpt lat="49.769938" lon="11.937839">
        <ele>473.282314</ele>
        <time>2021-11-28T09:39:43.583Z</time>
      </trkpt>
      <trkpt lat="49.769916" lon="11.937703">
        <ele>473.528096</ele>
        <time>2021-11-28T09:39:50.575Z</time>
      </trkpt>
      <trkpt lat="49.769900" lon="11.937567">
        <ele>473.770437</ele>
        <time>2021-11-28T09:39:57.586Z</time>
      </trkpt>
      <trkpt lat="49.769892" lon="11.937427">
        <ele>474.016825</ele>
        <time>2021-11-28T09:40:06.582Z</time>
      </trkpt>
      <trkpt lat="49.769878" lon="11.937285">
        <ele>474.268645</ele>
        <time>2021-11-28T09:40:14.567Z</time>
      </trkpt>
      <trkpt lat="49.769864" lon="11.937142">
        <ele>474.522198</ele>
        <time>2021-11-28T09:40:23.575Z</time>
      </trkpt>
      <trkpt lat="49.769865" lon="11.936996">
        <ele>474.778161</ele>
        <time>2021-11-28T09:40:31.582Z</time>
      </trkpt>
      <trkpt lat="49.769853" lon="11.936854">
        <ele>475.029219</ele>
        <time>2021-11-28T09:40:38.590Z</time>
      </trkpt>
      <trkpt lat="49.769847" lon="11.936703">
        <ele>475.294434</ele>
        <time>2021-11-28T09:40:46.579Z</time>
      </trkpt>
      <trkpt lat="49.769832" lon="11.936565">
        <ele>475.539760</ele>
        <time>2021-11-28T09:40:53.585Z</time>
      </trkpt>
      <trkpt lat="49.769829" lon="11.936420">
        <ele>475.794086</ele>
        <time>2021-11-28T09:41:01.584Z</time>
      </trkpt>
      <trkpt lat="49.769825" lon="11.936279">
        <ele>476.041508</ele>
        <time>2021-11-28T09:41:10.580Z</time>
      </trkpt>
      <trkpt lat="49.769904" lon="11.936194">
        <ele>476.302631</ele>
        <time>2021-11-28T09:41:18.577Z</time>
      </trkpt>
      <trkpt lat="49.769976" lon="11.936088">
        <ele>476.572305</ele>
        <time>2021-11-28T09:41:27.580Z</time>
      </trkpt>
      <trkpt lat="49.770051" lon="11.935997">
        <ele>476.830940</ele>
        <time>2021-11-28T09:41:35.572Z</time>
      </trkpt>
      <trkpt lat="49.770118" lon="11.935900">
        <ele>477.079916</ele>
        <time>2021-11-28T09:41:43.576Z</time>
      </trkpt>
      <trkpt lat="49.770178" lon="11.935795">
        <ele>477.452513</ele>
        <time>2021-11-28T09:41:52.580Z</time>
      </trkpt>
      <trkpt lat="49.770249" lon="11.935699">
        <ele>477.870944</ele>
        <time>2021-11-28T09:42:03.578Z</time>
      </trkpt>
      <trkpt lat="49.770339" lon="11.935634">
        <ele>478.311783</ele>
        <time>2021-11-28T09:42:13.568Z</time>
      </trkpt>
      <trkpt lat="49.770416" lon="11.935538">
        <ele>478.750625</ele>
        <time>2021-11-28T09:42:26.570Z</time>
      </trkpt>
      <trkpt lat="49.770489" lon="11.935438">
        <ele>479.183294</ele>
        <time>2021-11-28T09:42:35.578Z</time>
      </trkpt>
      <trkpt lat="49.770578" lon="11.935368">
        <ele>479.626419</ele>
        <time>2021-11-28T09:42:44.573Z</time>
      </trkpt>
      <trkpt lat="49.770663" lon="11.935302">
        <ele>480.048524</ele>
        <time>2021-11-28T09:42:54.575Z</time>
      </trkpt>
      <trkpt lat="49.770741" lon="11.935206">
        <ele>480.490831</ele>
        <time>2021-11-28T09:43:08.577Z</time>
      </trkpt>
      <trkpt lat="49.770819" lon="11.935120">
        <ele>480.915891</ele>
        <time>2021-11-28T09:43:16.567Z</time>
      </trkpt>
      <trkpt lat="49.770869" lon="11.934991">
        <ele>481.347215</ele>
        <time>2021-11-28T09:43:25.576Z</time>
      </trkpt>
      <trkpt lat="49.770939" lon="11.934888">
        <ele>481.775880</ele>
        <time>2021-11-28T09:43:34.584Z</time>
      </trkpt>
      <trkpt lat="49.771009" lon="11.934785">
        <ele>482.204544</ele>
        <time>2021-11-28T09:43:43.631Z</time>
      </trkpt>
      <trkpt lat="49.771059" lon="11.934662">
        <ele>482.621212</ele>
        <time>2021-11-28T09:43:53.579Z</time>
      </trkpt>
      <trkpt lat="49.771099" lon="11.934525">
        <ele>483.052251</ele>
        <time>2021-11-28T09:44:02.565Z</time>
      </trkpt>
      <trkpt lat="49.771144" lon="11.934401">
        <ele>483.460028</ele>
        <time>2021-11-28T09:44:14.576Z</time>
      </trkpt>
      <trkpt lat="49.771160" lon="11.934253">
        <ele>483.890235</ele>
        <time>2021-11-28T09:44:27.561Z</time>
      </trkpt>
      <trkpt lat="49.771143" lon="11.934116">
        <ele>484.290187</ele>
        <time>2021-11-28T09:44:35.588Z</time>
      </trkpt>
      <trkpt lat="49.771113" lon="11.933974">
        <ele>484.718518</ele>
        <time>2021-11-28T09:44:48.567Z</time>
      </trkpt>
      <trkpt lat="49.771066" lon="11.933838">
        <ele>485.110350</ele>
        <time>2021-11-28T09:44:58.579Z</time>
      </trkpt>
      <trkpt lat="49.771000" lon="11.933727">
        <ele>485.110350</ele>
        <time>2021-11-28T09:45:06.582Z</time>
      </trkpt>
      <trkpt lat="49.770942" lon="11.933608">
        <ele>485.110350</ele>
        <time>2021-11-28T09:45:18.573Z</time>
      </trkpt>
      <trkpt lat="49.770897" lon="11.933475">
        <ele>485.110350</ele>
        <time>2021-11-28T09:45:27.575Z</time>
      </trkpt>
      <trkpt lat="49.770839" lon="11.933350">
        <ele>485.110350</ele>
        <time>2021-11-28T09:45:36.572Z</time>
      </trkpt>
      <trkpt lat="49.770787" lon="11.933228">
        <ele>485.110350</ele>
        <time>2021-11-28T09:45:43.573Z</time>
      </trkpt>
      <trkpt lat="49.770775" lon="11.933084">
        <ele>485.110350</ele>
        <time>2021-11-28T09:45:52.585Z</time>
      </trkpt>
      <trkpt lat="49.770805" lon="11.932947">
        <ele>485.110350</ele>
        <time>2021-11-28T09:46:01.574Z</time>
      </trkpt>
      <trkpt lat="49.770861" lon="11.932821">
        <ele>485.110350</ele>
        <time>2021-11-28T09:46:11.574Z</time>
      </trkpt>
      <trkpt lat="49.770845" lon="11.932677">
        <ele>485.110350</ele>
        <time>2021-11-28T09:46:20.574Z</time>
      </trkpt>
      <trkpt lat="49.770809" lon="11.932549">
        <ele>485.110350</ele>
        <time>2021-11-28T09:46:29.572Z</time>
      </trkpt>
      <trkpt lat="49.770853" lon="11.932411">
        <ele>485.110350</ele>
        <time>2021-11-28T09:46:37.571Z</time>
      </trkpt>
      <trkpt lat="49.770938" lon="11.932342">
        <ele>485.110350</ele>
        <time>2021-11-28T09:46:48.564Z</time>
      </trkpt>
      <trkpt lat="49.771010" lon="11.932244">
        <ele>485.110350</ele>
        <time>2021-11-28T09:46:58.563Z</time>
      </trkpt>
      <trkpt lat="49.771092" lon="11.932160">
        <ele>485.110350</ele>
        <time>2021-11-28T09:47:07.571Z</time>
      </trkpt>
      <trkpt lat="49.771169" lon="11.932074">
        <ele>485.110350</ele>
        <time>2021-11-28T09:47:15.579Z</time>
      </trkpt>
      <trkpt lat="49.771233" lon="11.931973">
        <ele>485.110350</ele>
        <time>2021-11-28T09:47:23.570Z</time>
      </trkpt>
      <trkpt lat="49.771304" lon="11.931865">
        <ele>485.110350</ele>
        <time>2021-11-28T09:47:32.578Z</time>
      </trkpt>
      <trkpt lat="49.771363" lon="11.931753">
        <ele>485.110350</ele>
        <time>2021-11-28T09:47:40.585Z</time>
      </trkpt>
      <trkpt lat="49.771424" lon="11.931629">
        <ele>485.110350</ele>
        <time>2021-11-28T09:47:49.585Z</time>
      </trkpt>
      <trkpt lat="49.771488" lon="11.931511">
        <ele>485.110350</ele>
        <time>2021-11-28T09:47:59.569Z</time>
      </trkpt>
      <trkpt lat="49.771539" lon="11.931391">
        <ele>485.110350</ele>
        <time>2021-11-28T09:48:08.580Z</time>
      </trkpt>
      <trkpt lat="49.771592" lon="11.931259">
        <ele>485.110350</ele>
        <time>2021-11-28T09:48:18.574Z</time>
      </trkpt>
      <trkpt lat="49.771643" lon="11.931138">
        <ele>485.110350</ele>
        <time>2021-11-28T09:48:27.565Z</time>
      </trkpt>
      <trkpt lat="49.771694" lon="11.931014">
        <ele>485.110350</ele>
        <time>2021-11-28T09:48:36.566Z</time>
      </trkpt>
      <trkpt lat="49.771782" lon="11.930955">
        <ele>485.110350</ele>
        <time>2021-11-28T09:48:50.572Z</time>
      </trkpt>
      <trkpt lat="49.771790" lon="11.930953">
        <ele>485.110350</ele>
        <time>2021-11-28T09:48:58.350Z</time>
      </trkpt>
    </trkseg>
  </trk>
</gpx>